User Preferences

Timezone
Units
Lat/Lon format
Defaults

Geo and time bounds

200 - WILMINGTON HARBOR, NC   Notice:11/07/2019 Replaced buoy Mobile View
1465 records
Date
(UTC)
Hs
(ft)
Tp
(s)
Dp
(deg)
Ta
(s)
SST
(F)
Current sp
(kt)
Current dir
(deg)
2019-12-31 23:30 5.02 5.88 212 4.41 56.7 0.47 120.0
2019-12-31 23:00 4.82 6.06 207 4.25 56.7 0.62 117.0
2019-12-31 22:30 5.22 5.71 214 4.33 56.7 0.68 133.0
2019-12-31 22:00 5.41 6.06 210 4.52 56.8 0.72 129.0
2019-12-31 21:30 5.02 5.88 208 4.42 56.7 0.93 137.0
2019-12-31 21:00 4.95 5.71 216 4.41 56.8 1.05 136.0
2019-12-31 20:30 4.86 6.67 196 4.37 56.8 1.15 142.0
2019-12-31 20:00 4.92 6.67 195 4.34 56.8 1.26 140.0
2019-12-31 19:30 4.82 5.88 213 4.33 56.8 1.28 138.0
2019-12-31 19:00 5.05 6.06 206 4.41 57.0 1.22 130.0
2019-12-31 18:30 4.92 5.41 226 4.31 57.2 1.28 129.0
2019-12-31 18:00 5.25 5.56 223 4.27 57.4 1.15 124.0
2019-12-31 17:30 4.95 5.56 220 4.15 57.9 0.82 116.0
2019-12-31 17:00 4.95 5.88 213 4.21 57.9 0.74 108.0
2019-12-31 16:30 4.95 5.71 216 4.27 57.9 0.70 100.0
2019-12-31 16:00 4.95 5.41 221 4.25 57.9 0.70 89.0
2019-12-31 15:30 4.82 6.67 196 4.28 57.9 0.66 83.0
2019-12-31 15:00 5.05 6.90 195 4.36 57.7 0.51 76.0
2019-12-31 14:30 5.22 5.26 228 4.33 57.4 0.45 84.0
2019-12-31 14:00 5.31 4.65 238 4.32 56.8 0.52 66.0
2019-12-31 13:30 5.25 5.00 246 4.34 56.7 0.47 88.0
2019-12-31 13:00 5.18 5.26 232 4.40 56.5 0.54 80.0
2019-12-31 12:30 5.48 6.90 189 4.52 56.1 0.60 94.0
2019-12-31 12:00 5.61 6.90 190 4.62 56.1 0.49 83.0
2019-12-31 11:30 5.45 7.41 190 4.62 56.1 0.52 95.0
2019-12-31 11:00 5.41 7.69 186 4.55 56.1 0.58 110.0
2019-12-31 10:30 5.31 7.41 193 4.58 56.1 0.56 108.0
2019-12-31 10:00 5.41 8.00 194 4.53 56.1 0.74 125.0
2019-12-31 09:30 5.09 7.14 192 4.55 56.1 0.86 125.0
2019-12-31 09:00 5.02 7.69 186 4.70 56.1 0.84 128.0
2019-12-31 08:30 5.09 7.69 188 4.65 56.3 0.91 127.0
2019-12-31 08:00 5.12 8.33 188 4.80 56.3 0.95 128.0
2019-12-31 07:30 5.12 8.00 188 4.97 56.1 0.87 130.0
2019-12-31 07:00 5.12 8.00 192 4.92 56.1 0.93 124.0
2019-12-31 06:30 5.35 8.00 190 4.91 56.3 0.84 117.0
2019-12-31 06:00 5.41 8.33 191 4.96 56.1 0.78 116.0
2019-12-31 05:30 5.41 8.33 185 4.85 56.1 0.80 110.0
2019-12-31 05:00 5.15 8.00 194 4.79 56.5 0.70 100.0
2019-12-31 04:30 5.77 8.33 190 5.03 56.3 0.76 98.0
2019-12-31 04:00 5.25 8.00 190 4.84 56.5 0.68 97.0
2019-12-31 03:30 5.41 8.00 189 4.92 56.5 0.66 88.0
2019-12-31 03:00 5.64 8.33 194 5.28 57.0 0.60 79.0
2019-12-31 02:30 5.84 8.00 189 5.36 57.2 0.60 80.0
2019-12-31 02:00 5.77 8.33 186 5.45 57.2 0.49 69.0
2019-12-31 01:30 5.45 8.00 188 5.33 56.5 0.43 70.0
2019-12-31 01:00 5.64 8.00 187 5.54 56.5 0.41 60.0
2019-12-31 00:30 6.43 8.33 187 5.93 56.3 0.27 69.0
2019-12-31 00:00 6.33 8.33 185 5.73 56.1 0.23 76.0
2019-12-30 23:30 6.14 7.69 183 5.63 55.9 0.17 65.0
2019-12-30 23:00 6.40 8.00 186 5.70 55.8 0.25 91.0
2019-12-30 22:30 6.69 8.00 179 5.76 55.8 0.35 94.0
2019-12-30 22:00 6.53 8.00 188 5.70 55.8 0.52 100.0
2019-12-30 21:30 7.15 7.69 180 5.92 55.6 0.64 111.0
2019-12-30 21:00 6.79 8.00 186 5.74 55.6 0.72 118.0
2019-12-30 20:30 7.45 8.33 187 5.88 55.6 0.86 118.0
2019-12-30 20:00 7.15 8.33 185 5.67 55.6 0.95 120.0
2019-12-30 19:30 6.63 8.33 187 5.60 55.6 0.99 126.0
2019-12-30 19:00 6.50 8.33 185 5.57 55.6 1.03 129.0
2019-12-30 18:30 6.36 8.33 189 5.50 55.6 0.95 131.0
2019-12-30 18:00 6.46 8.33 187 5.65 55.6 0.97 124.0
2019-12-30 17:30 6.17 7.69 187 5.53 55.6 0.76 126.0
2019-12-30 17:00 6.10 8.00 181 5.69 55.6 0.76 114.0
2019-12-30 16:30 6.23 8.00 185 5.66 55.6 0.68 98.0
2019-12-30 16:00 5.97 7.69 179 5.55 55.8 0.64 106.0
2019-12-30 15:30 6.33 8.00 181 5.62 55.6 0.62 92.0
2019-12-30 15:00 6.14 7.69 193 5.41 55.6 0.60 81.0
2019-12-30 14:30 6.50 7.41 185 5.67 55.6 0.58 71.0
2019-12-30 14:00 6.36 7.41 182 5.63 55.6 0.58 63.0
2019-12-30 13:30 6.53 7.41 189 5.43
2019-12-30 12:30 6.66 7.14 188 5.44 55.8 0.37 28.0
2019-12-30 12:00 6.63 6.90 176 5.40 55.8 0.31 20.0
2019-12-30 11:00 6.23 7.14 175 5.37 55.8 0.23 13.0
2019-12-30 10:30 6.86 7.41 185 5.72 55.9 0.16 34.0
2019-12-30 10:00 6.43 7.14 177 5.58 55.9 0.17 69.0
2019-12-30 09:30 7.12 7.41 184 5.90 55.9 0.37 105.0
2019-12-30 09:00 6.89 7.41 178 5.87 55.8 0.43 115.0
2019-12-30 08:30 6.89 7.41 189 5.87 55.9 0.51 118.0
2019-12-30 08:00 6.43 7.41 180 5.65 55.8 0.66 121.0
2019-12-30 07:30 6.73 7.14 182 5.94 55.9 0.62 127.0
2019-12-30 07:00 6.53 7.69 179 6.03 55.9 0.56 108.0
2019-12-30 06:30 6.20 7.14 176 5.69 56.1 0.43 99.0
2019-12-30 06:00 5.94 7.14 181 5.64 56.1 0.43 91.0
2019-12-30 05:30 5.77 6.90 175 5.56 56.1 0.45 89.0
2019-12-30 05:00 6.10 6.90 172 5.59 56.1 0.62 80.0
2019-12-30 04:30 5.77 7.14 178 5.42 56.1 0.54 67.0
2019-12-30 04:00 5.41 7.14 177 5.33 56.1 0.70 71.0
2019-12-30 03:30 5.25 6.90 175 5.19 56.3 0.68 51.0
2019-12-30 03:00 5.12 6.67 172 5.03 56.1 0.60 46.0
2019-12-30 02:30 4.86 6.45 170 4.99 56.1 0.58 36.0
2019-12-30 02:00 4.99 6.67 173 5.13 56.1 0.54 36.0
2019-12-30 01:30 4.89 6.25 170 4.99 56.1 0.60 16.0
2019-12-30 01:00 4.79 6.06 170 4.82 55.6 0.60 5.0
2019-12-30 00:30 4.46 5.88 175 4.59 55.6 0.49 346.0
2019-12-30 00:00 4.49 5.88 170 4.57 55.9 0.43 330.0
2019-12-29 23:30 4.89 6.06 168 4.77 56.7 0.58 333.0
2019-12-29 23:00 4.59 6.06 170 4.69 57.0 0.51 322.0
2019-12-29 22:30 4.27 5.56 167 4.65 57.4 0.45 311.0
2019-12-29 22:00 4.13 5.56 162 4.51 57.4 0.37 304.0
2019-12-29 21:30 4.04 5.71 167 4.59 57.4 0.23 280.0
2019-12-29 21:00 3.58 5.13 166 4.48 57.6 0.19 240.0
2019-12-29 20:30 3.74 5.41 175 4.59 57.7 0.21 211.0
2019-12-29 20:00 3.44 5.26 170 4.59 58.3 0.25 180.0
2019-12-29 19:30 3.25 5.26 172 4.82 57.9 0.47 134.0
2019-12-29 19:00 3.18 5.13 159 4.95 57.6 0.43 148.0
2019-12-29 18:30 3.12 5.88 171 5.05 57.4 0.49 148.0
2019-12-29 18:00 2.95 5.71 165 5.12 57.2 0.47 157.0
2019-12-29 17:30 2.92 5.13 166 5.18 57.0 0.52 143.0
2019-12-29 17:00 3.05 7.69 150 5.34 57.2 0.37 137.0
2019-12-29 16:30 2.99 5.00 163 5.24 57.7 0.39 143.0
2019-12-29 16:00 2.85 8.33 154 5.13 57.4 0.39 124.0
2019-12-29 15:30 2.92 5.26 163 5.06 57.0 0.33 115.0
2019-12-29 15:00 2.82 4.88 168 4.98 56.8 0.29 98.0
2019-12-29 14:30 2.72 4.55 169 4.83 56.7 0.17 56.0
2019-12-29 14:00 2.95 5.00 159 4.91 56.7 0.23 357.0
2019-12-29 13:30 2.85 7.69 141 4.77 56.7 0.23 1.0
2019-12-29 13:00 2.85 7.14 160 4.69 56.5 0.23 334.0
2019-12-29 12:30 2.82 4.76 152 4.63 56.5 0.25 323.0
2019-12-29 12:00 2.99 8.00 151 4.59 56.7 0.29 296.0
2019-12-29 11:30 3.02 8.00 141 4.43 57.0 0.31 305.0
2019-12-29 11:00 2.92 7.69 151 4.39 57.0 0.29 284.0
2019-12-29 10:30 2.89 6.45 161 4.34 57.4 0.27 282.0
2019-12-29 10:00 3.05 4.35 170 4.48 57.0 0.21 275.0
2019-12-29 09:30 2.85 7.41 145 4.59 57.2 0.27 242.0
2019-12-29 09:00 2.79 7.41 148 4.84 57.2 0.29 232.0
2019-12-29 08:30 2.76 8.00 143 5.08 57.7 0.27 190.0
2019-12-29 08:00 2.40 6.45 161 5.02
2019-12-29 06:30 2.36 7.69 139 5.66 57.0 0.33 140.0
2019-12-29 06:00 2.26 7.41 150 5.55 57.0 0.27 149.0
2019-12-29 05:30 2.20 8.00 139 5.67 56.7 0.31 134.0
2019-12-29 05:00 2.33 8.00 144 5.72 56.5 0.35 118.0
2019-12-29 04:30 2.26 6.45 161 5.73 56.5 0.29 126.0
2019-12-29 04:00 2.20 6.45 168 5.65 56.3 0.25 148.0
2019-12-29 03:30 2.36 8.00 144 5.92 55.8 0.02 228.0
2019-12-29 03:00 2.30 8.33 142 5.61 55.8 0.12 13.0
2019-12-29 02:30 2.20 8.33 143 5.39 55.8 0.12 352.0
2019-12-29 02:00 2.30 8.33 136 5.44 55.9 0.23 4.0
2019-12-29 01:30 2.46 8.70 140 5.31 56.1 0.29 344.0
2019-12-29 01:00 2.40 8.33 145 5.24 56.5 0.23 312.0
2019-12-29 00:30 2.53 8.00 143 5.17 56.5 0.23 304.0
2019-12-29 00:00 2.53 7.14 157 5.06 56.5 0.23 299.0
2019-12-28 23:30 2.56 6.67 158 5.06 56.7 0.29 286.0
2019-12-28 23:00 2.62 7.41 149 5.14 56.8 0.31 292.0
2019-12-28 22:30 2.59 7.69 135 5.19 57.0 0.29 282.0
2019-12-28 22:00 2.59 6.25 156 4.99 57.2 0.35 281.0
2019-12-28 21:30 2.66 7.14 159 5.10 57.4 0.31 257.0
2019-12-28 21:00 2.59 7.41 146 5.08 57.9 0.29 246.0
2019-12-28 20:30 2.56 8.00 138 5.06 58.1 0.27 216.0
2019-12-28 20:00 2.43 8.33 142 5.06 58.8 0.29 194.0
2019-12-28 19:30 2.56 7.14 153 5.17 58.8 0.35 178.0
2019-12-28 19:00 2.49 8.00 147 5.28 59.9 0.35 161.0
2019-12-28 18:30 2.43 7.14 155 5.18 59.2 0.49 158.0
2019-12-28 18:00 2.40 7.69 146 5.27 59.2 0.56 160.0
2019-12-28 17:30 2.46 7.69 155 5.51 58.3 0.47 157.0
2019-12-28 17:00 2.36 8.00 150 5.47 57.4 0.64 156.0
2019-12-28 16:30 2.26 8.00 147 5.45 56.7 0.54 151.0
2019-12-28 16:00 2.40 9.09 140 5.53 55.6 0.52 126.0
2019-12-28 15:30 2.46 6.90 150 5.14 55.8 0.43 113.0
2019-12-28 15:00 2.46 6.06 156 5.23 55.6 0.25 95.0
2019-12-28 14:30 2.49 8.00 135 5.19 55.2 0.17 67.0
2019-12-28 14:00 2.53 6.25 145 5.00 55.2 0.14 32.0
2019-12-28 13:30 2.53 5.41 151 5.10 55.2 0.27 18.0
2019-12-28 13:00 2.43 5.13 155 4.86 55.2 0.31 337.0
2019-12-28 12:30 2.59 7.41 142 5.03 55.2 0.39 333.0
2019-12-28 12:00 2.53 8.00 128 4.95 55.2 0.45 321.0
2019-12-28 11:30 2.56 7.69 136 4.91 55.2 0.45 310.0
2019-12-28 11:00 2.66 8.00 131 5.00 55.6 0.49 299.0
2019-12-28 10:30 2.49 8.00 130 4.78 55.6 0.41 288.0
2019-12-28 10:00 2.56 7.69 130 4.62 55.6 0.43 280.0
2019-12-28 09:30 2.66 7.69 134 4.82 55.8 0.49 265.0
2019-12-28 09:00 2.53 6.45 153 4.77 55.8 0.47 247.0
2019-12-28 08:30 2.59 4.35 150 4.82 56.1 0.35 229.0
2019-12-28 08:00 2.62 8.00 142 4.92 56.3 0.31 210.0
2019-12-28 07:30 2.46 8.00 143 5.00 56.1 0.37 187.0
2019-12-28 07:00 2.33 7.69 138 4.93 55.8 0.43 185.0
2019-12-28 06:30 2.30 7.69 142 4.97 55.6 0.43 169.0
2019-12-28 06:00 2.26 4.65 148 5.06 55.6 0.39 169.0
2019-12-28 05:30 2.33 5.71 161 5.11 55.2 0.49 155.0
2019-12-28 05:00 2.23 8.00 148 5.18 55.0 0.49 159.0
2019-12-28 04:30 2.23 7.14 146 5.27 55.0 0.47 149.0
2019-12-28 04:00 2.26 8.00 131 5.18 55.0 0.41 149.0
2019-12-28 03:30 2.36 8.33 138 5.46 55.4 0.45 147.0
2019-12-28 03:00 2.36 8.33 134 5.39 55.0 0.45 144.0
2019-12-28 02:30 2.30 8.00 132 5.31 55.4 0.39 144.0
2019-12-28 02:00 2.26 8.33 139 5.40 55.6 0.43 137.0
2019-12-28 01:30 2.33 8.33 135 5.51 55.4 0.16 24.0
2019-12-28 01:00 2.26 7.69 134 5.31 55.4 0.19 354.0
2019-12-28 00:30 2.33 8.70 124 5.30 55.4 0.23 331.0
2019-12-28 00:00 2.40 8.33 126 5.17 55.6 0.25 312.0
2019-12-27 23:30 2.33 8.00 123 5.19 55.9 0.27 283.0
2019-12-27 23:00 2.33 7.69 134 5.03 55.8 0.33 292.0
2019-12-27 22:30 2.43 8.33 128 4.93 56.1 0.39 279.0
2019-12-27 22:00 2.33 8.00 127 4.83 55.6 0.35 283.0
2019-12-27 21:30 2.36 8.33 132 4.82 56.1 0.35 272.0
2019-12-27 21:00 2.43 8.70 132 4.75 56.3 0.39 261.0
2019-12-27 20:30 2.46 7.69 136 4.87 56.5 0.39 243.0
2019-12-27 20:00 2.36 8.33 134 4.60 56.5 0.41 211.0
2019-12-27 19:30 2.40 8.70 136 4.85 56.5 0.45 197.0
2019-12-27 19:00 2.30 8.70 141 4.89 56.7 0.52 196.0
2019-12-27 18:30 2.26 9.09 132 4.96 56.7 0.58 187.0
2019-12-27 18:00 2.20 8.33 140 5.10 56.7 0.60 175.0
2019-12-27 17:30 2.26 8.70 136 5.24 56.7 0.58 168.0
2019-12-27 17:00 2.17 9.09 138 5.20 55.9 0.62 169.0
2019-12-27 16:30 2.17 8.70 133 5.30 55.0 0.58 155.0
2019-12-27 16:00 2.40 9.09 139 5.43 55.0 0.66 147.0
2019-12-27 15:30 2.40 8.70 128 5.19 55.2 0.58 144.0
2019-12-27 15:00 2.36 9.09 136 5.01 55.0 0.58 117.0
2019-12-27 14:30 2.40 8.70 122 5.08 55.4 0.29 93.0
2019-12-27 14:00 2.56 8.70 121 5.06 55.0 0.39 85.0
2019-12-27 13:30 2.56 9.09 126 5.06 55.0 0.25 55.0
2019-12-27 13:00 2.56 9.09 132 4.79 55.0 0.31 25.0
2019-12-27 12:30 2.53 9.09 127 4.73 55.2 0.35 346.0
2019-12-27 12:00 2.66 8.33 128 5.12 55.0 0.41 332.0
2019-12-27 11:30 2.59 9.09 125 4.86 54.7 0.47 318.0
2019-12-27 11:00 2.79 8.00 126 5.06 54.7 0.49 307.0
2019-12-27 10:30 2.62 8.70 122 4.87 54.7 0.60 299.0
2019-12-27 10:00 2.69 8.70 135 4.81 54.5 0.56 292.0
2019-12-27 09:30 2.62 8.33 133 4.71 54.5 0.56 278.0
2019-12-27 09:00 2.59 8.33 132 4.66 54.5 0.52 268.0
2019-12-27 08:30 2.72 8.33 127 4.74 54.5 0.52 266.0
2019-12-27 08:00 2.72 8.33 134 4.93 54.5 0.52 249.0
2019-12-27 07:30 2.56 8.33 139 4.64 54.7 0.49 241.0
2019-12-27 06:30 2.46 8.70 135 4.51 54.7 0.51 220.0
2019-12-27 06:00 2.46 8.33 135 4.64 54.7 0.47 203.0
2019-12-27 05:30 2.53 9.09 144 4.90 55.0 0.51 194.0
2019-12-27 05:00 2.30 8.33 134 5.31 55.6 0.51 176.0
2019-12-27 04:30 2.40 9.09 143 5.78 55.6 0.47 172.0
2019-12-27 04:00 2.43 8.33 133 5.83 55.4 0.60 163.0
2019-12-27 03:30 2.43 9.09 138 6.24 55.6 0.58 149.0
2019-12-27 03:00 2.20 9.09 139 6.21 55.2 0.60 144.0
2019-12-27 02:30 2.20 9.09 136 6.16 55.4 0.56 144.0
2019-12-27 02:00 2.26 9.09 138 6.44 55.0 0.45 143.0
2019-12-27 01:30 2.20 8.70 129 6.35 55.2 0.27 158.0
2019-12-27 01:00 2.13 9.09 137 6.04 55.4 0.14 165.0
2019-12-27 00:30 2.46 9.09 128 6.30 55.6 0.16 285.0
2019-12-27 00:00 2.36 9.52 131 6.06 55.6 0.25 280.0
2019-12-26 23:30 2.33 9.09 132 5.84 55.4 0.37 280.0
2019-12-26 23:00 2.30 9.09 127 5.55 55.6 0.35 294.0
2019-12-26 22:30 2.53 9.09 131 5.60 55.2 0.41 301.0
2019-12-26 22:00 2.53 8.70 128 5.39 55.4 0.47 297.0
2019-12-26 21:30 2.69 9.09 129 5.62 55.6 0.43 289.0
2019-12-26 21:00 2.69 8.33 131 5.39 55.6 0.41 280.0
2019-12-26 20:30 2.76 8.70 134 5.37 55.6 0.35 266.0
2019-12-26 20:00 2.69 8.70 134 5.33 55.8 0.29 244.0
2019-12-26 19:30 2.66 8.33 135 5.33 55.6 0.27 242.0
2019-12-26 19:00 2.66 9.09 141 5.56 56.1 0.41 222.0
2019-12-26 18:30 2.49 9.09 137 5.42 56.7 0.45 195.0
2019-12-26 18:00 2.49 9.09 146 5.54 56.5 0.51 191.0
2019-12-26 17:30 2.36 9.09 150 5.51 57.2 0.52 185.0
2019-12-26 17:00 2.36 8.70 141 5.58 56.3 0.54 179.0
2019-12-26 16:30 2.36 9.52 139 5.64 55.6 0.54 175.0
2019-12-26 16:00 2.36 9.09 138 5.80 55.2 0.49 168.0
2019-12-26 15:30 2.43 9.09 142 5.68 55.2 0.60 162.0
2019-12-26 15:00 2.40 8.33 136 5.61 55.2 0.62 151.0
2019-12-26 14:30 2.43 9.09 126 5.40 55.0 0.62 145.0
2019-12-26 14:00 2.49 9.09 131 5.36 55.0 0.58 145.0
2019-12-26 13:30 2.49 10.00 133 5.25 55.4 0.52 132.0
2019-12-26 13:00 2.89 9.09 128 5.36 56.1 0.45 112.0
2019-12-26 12:30 2.79 9.09 121 4.88 56.5 0.25 97.0
2019-12-26 12:00 2.89 9.09 127 4.79 56.7 0.25 72.0
2019-12-26 11:30 2.99 9.09 132 4.75 56.7 0.16 16.0
2019-12-26 11:00 3.12 9.52 124 4.52 56.8 0.31 347.0
2019-12-26 10:30 3.22 9.09 118 4.48 56.7 0.35 343.0
2019-12-26 10:00 3.25 8.70 120 4.97 55.9 0.43 320.0
2019-12-26 09:30 3.22 8.70 122 4.97 55.2 0.56 328.0
2019-12-26 09:00 3.25 8.00 132 5.00 54.3 0.56 280.0
2019-12-26 08:30 2.92 10.00 108 4.77 54.0 0.60 268.0
2019-12-26 08:00 2.95 9.09 123 4.80 54.0 0.64 263.0
2019-12-26 07:30 2.95 8.33 144 4.82 54.1 0.47 258.0
2019-12-26 07:00 2.99 9.09 119 4.61 54.3 0.49 241.0
2019-12-26 06:30 2.99 8.33 146 4.74 54.1 0.58 226.0
2019-12-26 06:00 3.05 8.70 139 4.85 54.1 0.54 213.0
2019-12-26 05:30 2.82 8.70 143 4.74 54.1 0.70 205.0
2019-12-26 05:00 2.72 9.52 133 4.80 54.1 0.76 198.0
2019-12-26 04:30 2.72 8.70 144 4.91 54.3 0.62 187.0
2019-12-26 04:00 2.59 9.09 133 5.49 54.3 0.52 180.0
2019-12-26 03:30 2.59 9.09 152 5.80
2019-12-26 02:30 2.69 9.09 143 6.23 54.7 0.62 157.0
2019-12-26 02:00 2.69 9.52 146 6.20 54.9 0.54 143.0
2019-12-26 01:30 2.76 9.52 145 6.12 54.9 0.52 140.0
2019-12-26 01:00 2.89 9.52 143 6.15 55.0 0.51 139.0
2019-12-26 00:30 2.85 10.00 130 5.93 55.9 0.35 104.0
2019-12-26 00:00 3.12 9.52 137 5.94 56.1 0.27 72.0
2019-12-25 23:30 3.25 9.09 136 5.93 55.6 0.23 76.0
2019-12-25 23:00 3.18 9.52 122 5.42 55.4 0.19 359.0
2019-12-25 22:30 3.35 9.09 143 5.56 55.2 0.33 4.0
2019-12-25 22:00 3.35 9.52 133 5.26 55.2 0.35 353.0
2019-12-25 21:30 3.77 9.09 131 5.49 55.0 0.47 333.0
2019-12-25 21:00 3.64 9.09 130 5.19 55.2 0.47 333.0
2019-12-25 20:30 3.94 8.70 133 5.18 55.0 0.45 309.0
2019-12-25 20:00 3.64 9.09 138 4.98 55.0 0.45 286.0
2019-12-25 19:30 3.64 9.52 140 4.89 54.9 0.51 267.0
2019-12-25 19:00 3.61 9.52 137 4.94 54.9 0.47 251.0
2019-12-25 18:30 3.67 9.09 139 4.82 54.9 0.47 243.0
2019-12-25 18:00 3.67 9.52 148 4.66 54.9 0.60 222.0
2019-12-25 17:30 3.94 9.09 144 4.79 54.9 0.52 225.0
2019-12-25 17:00 3.74 9.09 134 4.60 54.9 0.58 199.0
2019-12-25 16:30 3.81 9.09 140 4.79 54.7 0.62 192.0
2019-12-25 16:00 3.58 9.52 136 4.36 54.7 0.70 183.0
2019-12-25 15:30 3.81 9.09 135 4.67 54.7 0.68 170.0
2019-12-25 15:00 3.87 10.00 143 4.73 54.7 0.74 167.0
2019-12-25 14:30 3.97 10.00 135 5.04 54.7 0.76 165.0
2019-12-25 14:00 3.81 10.00 126 4.88 54.7 0.68 158.0
2019-12-25 13:30 3.94 10.00 138 4.97 55.0 0.60 159.0
2019-12-25 13:00 4.10 9.52 136 5.14 55.0 0.41 133.0
2019-12-25 12:30 4.10 9.52 133 5.05 55.2 0.25 117.0
2019-12-25 12:00 4.53 9.52 137 5.28 55.2 0.23 81.0
2019-12-25 11:30 4.33 10.00 133 5.12 55.2 0.12 13.0
2019-12-25 11:00 4.82 9.52 133 5.34 55.2 0.19 15.0
2019-12-25 10:30 4.86 10.00 138 5.10
2019-12-25 09:30 4.99 9.09 135 5.13 55.2 0.45 317.0
2019-12-25 09:00 5.09 9.52 123 5.03 55.0 0.56 318.0
2019-12-25 08:30 5.28 10.00 129 5.07 54.9 0.60 315.0
2019-12-25 08:00 5.18 9.09 131 4.95 54.7 0.58 308.0
2019-12-25 07:30 5.22 9.52 127 4.87 54.7 0.64 299.0
2019-12-25 07:00 4.99 9.09 142 4.87 54.7 0.56 292.0
2019-12-25 06:30 5.28 9.09 140 4.83 54.7 0.54 271.0
2019-12-25 06:00 5.18 9.09 126 4.64 54.9 0.51 279.0
2019-12-25 05:30 5.25 9.09 140 4.65 54.9 0.56 256.0
2019-12-25 05:00 4.99 8.33 127 4.45 54.9 0.60 226.0
2019-12-25 04:30 4.89 9.09 147 4.50 55.0 0.58 216.0
2019-12-25 04:00 5.31 9.09 134 4.49 55.0 0.68 204.0
2019-12-25 03:30 5.18 9.09 139 4.57 55.0 0.70 191.0
2019-12-25 03:00 5.31 8.70 130 4.68
2019-12-25 02:00 5.28 9.09 127 4.76 55.2 0.68 184.0
2019-12-25 01:30 5.35 9.52 134 4.91 55.2 0.58 173.0
2019-12-25 01:00 5.15 9.09 135 4.96 55.2 0.58 181.0
2019-12-25 00:30 5.18 8.70 126 5.12 55.2 0.37 167.0
2019-12-25 00:00 5.51 9.52 129 5.30 55.2 0.14 187.0
2019-12-24 23:30 5.54 8.70 112 5.50 55.2 0.08 272.0
2019-12-24 23:00 5.51 9.09 125 5.25 55.2 0.17 296.0
2019-12-24 22:30 5.84 9.09 130 5.44 55.2 0.31 308.0
2019-12-24 22:00 5.45 9.09 138 5.26
2019-12-24 21:00 5.64 9.09 129 5.43 55.4 0.66 318.0
2019-12-24 20:30 5.68 8.33 125 5.34 55.2 0.68 308.0
2019-12-24 20:00 5.41 8.70 125 4.98 55.2 0.68 299.0
2019-12-24 19:30 5.61 9.09 139 5.03 55.0 0.68 297.0
2019-12-24 19:00 5.54 9.09 138 4.92 55.0 0.56 287.0
2019-12-24 18:30 5.48 8.33 136 4.71 55.0 0.60 268.0
2019-12-24 18:00 5.61 8.70 142 4.86 54.9 0.54 252.0
2019-12-24 17:30 5.81 8.33 143 5.07 54.7 0.58 235.0
2019-12-24 17:00 5.51 8.70 138 4.87 54.7 0.54 229.0
2019-12-24 16:30 5.48 9.09 142 4.88 54.7 0.56 221.0
2019-12-24 16:00 5.74 9.09 149 5.03 54.7 0.76 210.0
2019-12-24 15:30 5.97 9.09 148 5.00 54.9 0.89 204.0
2019-12-24 15:00 6.20 9.09 156 4.99 54.9 0.87 198.0
2019-12-24 14:30 6.76 9.09 150 5.23 54.7 0.93 202.0
2019-12-24 14:00 6.82 9.52 155 5.10 54.7 0.68 190.0
2019-12-24 13:30 6.76 9.09 147 4.95 54.5 0.74 192.0
2019-12-24 13:00 6.50 9.52 149 5.18 54.5 0.72 190.0
2019-12-24 12:30 6.69 9.52 145 5.44 54.5 0.54 183.0
2019-12-24 12:00 6.89 8.70 149 5.47 54.7 0.51 183.0
2019-12-24 11:30 6.53 8.70 139 5.34 54.7 0.33 183.0
2019-12-24 11:00 6.89 8.70 145 5.50 54.9 0.25 193.0
2019-12-24 10:30 7.12 9.09 154 5.71 54.9 0.12 229.0
2019-12-24 10:00 7.12 9.52 153 5.76 54.7 0.02 39.0
2019-12-24 09:30 7.22 9.09 142 5.85 54.7 0.31 297.0
2019-12-24 09:00 6.96 9.52 156 5.70 54.7 0.39 325.0
2019-12-24 08:30 7.02 9.09 134 5.80 54.5 0.58 312.0
2019-12-24 08:00 7.81 9.52 152 6.14 54.5 0.64 306.0
2019-12-24 07:30 7.12 9.52 158 5.81 54.7 0.58 310.0
2019-12-24 07:00 6.89 8.33 144 5.65 54.9 0.72 323.0
2019-12-24 06:30 7.35 8.33 151 5.93 54.9 0.64 309.0
2019-12-24 06:00 7.12 9.52 152 5.98 54.7 0.64 304.0
2019-12-24 05:30 7.15 8.70 152 6.00 54.5 0.56 283.0
2019-12-24 05:00 6.92 8.70 155 5.87 54.3 0.39 264.0
2019-12-24 04:30 6.89 9.09 159 5.83 54.3 0.35 240.0
2019-12-24 04:00 6.79 9.52 163 5.92 54.3 0.47 216.0
2019-12-24 03:30 6.76 10.00 168 5.87 54.3 0.43 197.0
2019-12-24 03:00 6.53 8.70 159 5.75 54.3 0.52 184.0
2019-12-24 02:30 7.84 9.52 162 6.14 54.3 0.51 186.0
2019-12-24 02:00 7.15 9.52 155 5.99 54.5 0.66 175.0
2019-12-24 01:30 7.64 9.52 154 6.28 54.7 0.62 175.0
2019-12-24 01:00 7.05 9.52 159 6.10 54.7 0.54 168.0
2019-12-24 00:30 7.55 10.00 157 6.45 54.9 0.45 167.0
2019-12-24 00:00 7.41 10.00 159 6.63 55.0 0.23 185.0
2019-12-23 23:30 7.05 10.00 161 6.40 55.0 0.16 124.0
2019-12-23 23:00 7.12 9.09 151 6.57 55.0 0.08 67.0
2019-12-23 22:30 7.22 9.52 158 6.48 55.0 0.19 355.0
2019-12-23 22:00 7.78 9.52 155 6.53 55.0 0.31 359.0
2019-12-23 21:30 8.07 9.52 157 6.74 54.9 0.37 339.0
2019-12-23 21:00 7.48 8.70 158 6.23 54.9 0.41 333.0
2019-12-23 20:30 7.91 9.09 158 6.34 54.9 0.52 327.0
2019-12-23 20:00 7.97 9.09 154 6.29 54.7 0.66 322.0
2019-12-23 19:30 7.84 9.09 150 6.17 54.7 0.76 320.0
2019-12-23 19:00 7.38 8.70 154 5.89 54.7 0.87 318.0
2019-12-23 18:30 7.61 9.09 155 6.05 54.5 0.86 312.0
2019-12-23 18:00 7.02 8.33 154 5.85 54.3 0.76 311.0
2019-12-23 17:30 7.15 8.33 155 6.00 54.3 0.66 302.0
2019-12-23 17:00 6.73 8.00 159 5.87 54.0 0.54 293.0
2019-12-23 16:30 6.63 8.00 157 5.78 53.8 0.35 279.0
2019-12-23 16:00 6.40 8.00 155 5.74 53.8 0.27 247.0
2019-12-23 15:30 6.07 8.00 162 5.70 54.0 0.43 227.0
2019-12-23 15:00 5.94 7.69 160 5.41 54.0 0.45 207.0
2019-12-23 14:30 5.68 7.69 159 5.44 54.0 0.51 183.0
2019-12-23 14:00 5.71 8.00 158 5.48 54.1 0.52 177.0
2019-12-23 13:30 5.38 8.33 160 5.42 54.1 0.49 168.0
2019-12-23 13:00 5.15 8.33 161 5.36 54.3 0.45 153.0
2019-12-23 12:30 5.09 8.00 152 5.31 54.3 0.43 142.0
2019-12-23 12:00 4.72 8.33 155 5.31 54.3 0.29 137.0
2019-12-23 11:30 5.15 8.00 149 5.40 54.5 0.33 115.0
2019-12-23 11:00 5.02 7.69 154 5.42 54.7 0.21 80.0
2019-12-23 10:30 4.86 8.00 150 5.16 54.7 0.17 45.0
2019-12-23 10:00 5.22 8.33 159 5.21 54.7 0.35 27.0
2019-12-23 09:30 5.05 7.69 149 5.29 54.7 0.39 14.0
2019-12-23 09:00 5.02 7.14 151 5.14 54.5 0.56 359.0
2019-12-23 08:30 5.09 8.33 157 5.24 54.3 0.58 349.0
2019-12-23 08:00 4.89 7.14 154 4.97 54.3 0.64 343.0
2019-12-23 07:30 5.05 6.90 145 4.93 54.1 0.66 333.0
2019-12-23 07:00 5.15 7.14 156 4.98 54.0 0.74 332.0
2019-12-23 06:30 5.09 7.14 152 5.04 53.8 0.84 328.0
2019-12-23 06:00 4.92 6.67 147 4.85 53.4 0.72 317.0
2019-12-23 05:30 4.79 7.41 150 4.64 53.6 0.64 311.0
2019-12-23 05:00 4.99 6.90 154 4.79 53.6 0.62 317.0
2019-12-23 04:30 5.12 7.14 157 4.85 53.6 0.66 309.0
2019-12-23 04:00 4.86 7.41 152 4.71 53.8 0.39 291.0
2019-12-23 03:30 4.92 7.14 164 4.70 53.8 0.35 255.0
2019-12-23 03:00 4.79 7.14 158 4.77 53.8 0.35 244.0
2019-12-23 02:30 4.56 5.56 129 4.58 53.8 0.49 214.0
2019-12-23 02:00 4.40 7.41 161 4.60 54.0 0.41 201.0
2019-12-23 01:30 4.63 7.14 158 4.74 54.0 0.37 186.0
2019-12-23 01:00 4.27 5.88 131 4.48 54.0 0.43 177.0
2019-12-23 00:30 4.23 7.14 160 4.66 54.0 0.37 168.0
2019-12-23 00:00 4.07 5.88 123 4.61 53.8 0.35 162.0
2019-12-22 23:30 4.23 6.06 124 4.64 53.8 0.31 171.0
2019-12-22 23:00 3.94 6.67 147 4.37 53.8 0.17 164.0
2019-12-22 22:30 4.17 5.71 113 4.50 53.8 0.04 120.0
2019-12-22 22:00 3.90 5.71 106 4.39 53.8 0.12 50.0
2019-12-22 21:30 4.23 5.56 93 4.46 53.8 0.16 322.0
2019-12-22 21:00 4.17 5.41 86 4.37 53.8 0.25 332.0
2019-12-22 20:30 3.97 5.26 83 4.26 53.8 0.25 327.0
2019-12-22 20:00 4.07 5.41 84 4.18 53.8 0.37 327.0
2019-12-22 19:30 4.04 4.88 79 4.14 53.8 0.51 323.0
2019-12-22 19:00 4.04 5.13 75 4.21 54.0 0.56 317.0
2019-12-22 18:30 3.94 5.13 76 4.11 54.0 0.58 319.0
2019-12-22 18:00 3.97 5.13 77 4.10 54.0 0.60 309.0
2019-12-22 17:30 3.97 5.26 83 4.09 54.0 0.56 306.0
2019-12-22 17:00 3.71 4.88 75 4.01 54.0 0.52 294.0
2019-12-22 16:30 3.81 5.13 81 4.15 53.8 0.49 284.0
2019-12-22 16:00 3.74 9.09 150 4.07 53.8 0.41 264.0
2019-12-22 15:30 3.61 5.26 65 3.91 53.6 0.45 240.0
2019-12-22 15:00 3.64 5.13 76 3.93 53.8 0.47 234.0
2019-12-22 14:30 3.38 4.88 92 3.97 54.0 0.47 208.0
2019-12-22 14:00 3.48 4.76 84 3.90 53.8 0.51 199.0
2019-12-22 13:30 3.31 5.26 91 3.86 53.8 0.54 196.0
2019-12-22 13:00 3.35 9.09 144 3.86 53.6 0.56 185.0
2019-12-22 12:30 3.41 5.26 108 3.89 53.6 0.64 180.0
2019-12-22 12:00 3.31 8.70 160 3.90 53.6 0.66 172.0
2019-12-22 11:30 3.12 4.76 88 3.88 53.6 0.60 164.0
2019-12-22 11:00 3.22 9.09 141 4.13 53.8 0.49 154.0
2019-12-22 10:30 3.18 5.26 102 3.99 53.8 0.51 146.0
2019-12-22 09:30 3.18 9.52 145 4.09 54.3 0.33 132.0
2019-12-22 09:00 3.15 5.26 82 4.12 54.3 0.19 110.0
2019-12-22 08:30 3.31 9.09 145 4.15 54.3 0.23 23.0
2019-12-22 08:00 3.25 4.08 66 4.08 54.3 0.25 10.0
2019-12-22 07:30 3.41 8.70 149 4.20 54.3 0.35 347.0
2019-12-22 07:00 3.51 3.85 65 4.08 54.3 0.43 339.0
2019-12-22 06:30 3.51 9.09 140 4.14 54.3 0.52 329.0
2019-12-22 06:00 3.44 5.41 97 4.15 54.1 0.56 327.0
2019-12-22 05:30 3.67 8.70 141 4.14 54.0 0.54 318.0
2019-12-22 05:00 3.48 5.26 94 4.09 53.8 0.66 310.0
2019-12-22 04:30 3.41 8.33 146 4.11 53.8 0.56 307.0
2019-12-22 04:00 3.38 5.41 93 4.00 54.0 0.41 286.0
2019-12-22 03:30 3.25 8.70 143 3.85 53.8 0.31 286.0
2019-12-22 03:00 3.31 9.52 148 3.93 53.8 0.31 248.0
2019-12-22 02:30 3.28 5.26 104 3.88 53.8 0.39 237.0
2019-12-22 02:00 3.28 5.13 88 3.78 53.8 0.51 210.0
2019-12-22 01:30 3.22 5.71 112 3.75 53.6 0.56 187.0
2019-12-22 01:00 3.15 8.33 149 3.76 53.6 0.56 187.0
2019-12-22 00:30 3.15 5.56 105 3.84 53.8 0.56 178.0
2019-12-22 00:00 3.18 5.13 101 3.98 53.8 0.58 182.0
2019-12-21 23:30 3.22 5.88 117 3.89 53.8 0.58 169.0
2019-12-21 23:00 3.41 5.41 94 3.96 53.8 0.43 170.0
2019-12-21 22:30 3.31 5.88 91 3.88 54.0 0.47 167.0
2019-12-21 22:00 3.44 6.25 111 3.99 54.1 0.33 161.0
2019-12-21 21:30 3.44 6.25 103 4.00 54.3 0.35 166.0
2019-12-21 21:00 3.61 6.90 126 4.16 54.5 0.16 132.0
2019-12-21 20:30 3.61 5.13 92 4.17 54.5 0.10 67.0
2019-12-21 20:00 3.64 6.06 89 4.02 54.5 0.02 333.0
2019-12-21 19:30 3.74 5.88 89 4.17 54.3 0.21 328.0
2019-12-21 19:00 3.71 5.41 85 4.08 54.1 0.39 307.0
2019-12-21 18:30 4.07 5.56 82 4.10 54.0 0.35 317.0
2019-12-21 18:00 4.00 4.76 70 4.08 54.0 0.49 314.0
2019-12-21 17:30 4.13 5.56 71 4.09 53.8 0.56 312.0
2019-12-21 17:00 4.10 4.44 65 4.03 53.8 0.58 308.0
2019-12-21 16:30 4.07 5.41 77 4.04 53.8 0.54 297.0
2019-12-21 16:00 4.04 3.92 61 3.88 53.8 0.54 289.0
2019-12-21 15:00 4.10 4.35 69 3.85 53.8 0.45 275.0
2019-12-21 14:30 3.84 4.55 73 3.76 53.8 0.45 248.0
2019-12-21 14:00 3.94 3.51 49 3.72 53.8 0.45 251.0
2019-12-21 13:30 3.74 5.26 87 3.70 53.8 0.39 212.0
2019-12-21 13:00 3.64 5.26 86 3.61 53.8 0.39 212.0
2019-12-21 12:30 3.67 5.13 80 3.69 54.0 0.47 190.0
2019-12-21 12:00 3.71 3.92 61 3.72 54.1 0.54 193.0
2019-12-21 11:30 3.54 4.17 70 3.66 54.0 0.51 200.0
2019-12-21 11:00 3.67 5.56 94 3.73 54.0 0.54 179.0
2019-12-21 10:30 3.51 5.71 81 3.72 54.0 0.58 165.0
2019-12-21 10:00 3.41 5.71 86 3.81 54.1 0.45 156.0
2019-12-21 09:30 3.44 5.41 74 3.89 54.1 0.23 139.0
2019-12-21 09:00 3.64 5.26 79 3.96 54.1 0.14 137.0
2019-12-21 08:30 3.51 5.26 83 3.95 54.1 0.12 155.0
2019-12-21 08:00 3.67 5.56 82 3.95 54.1 0.12 53.0
2019-12-21 07:30 3.58 5.71 88 3.99 54.1 0.10 323.0
2019-12-21 07:00 3.71 5.26 79 4.01 54.1 0.21 340.0
2019-12-21 06:30 3.64 4.76 76 3.98 54.1 0.41 332.0
2019-12-21 06:00 3.67 4.35 76 3.97 54.1 0.51 325.0
2019-12-21 05:30 3.54 5.13 94 3.96 54.1 0.60 319.0
2019-12-21 05:00 3.61 4.55 91 4.03 54.0 0.60 316.0
2019-12-21 04:30 3.54 4.76 87 3.83 54.0 0.56 314.0
2019-12-21 04:00 3.38 4.65 93 3.79 54.1 0.49 310.0
2019-12-21 03:30 3.31 4.08 79 3.75 53.8 0.37 309.0
2019-12-21 03:00 3.25 4.00 69 3.68 53.6 0.31 292.0
2019-12-21 02:30 2.99 4.35 96 3.71 53.6 0.21 264.0
2019-12-21 02:00 3.02 3.92 80 3.62 53.8 0.21 218.0
2019-12-21 01:30 2.82 9.52 145 3.65 53.8 0.31 202.0
2019-12-21 01:00 2.69 10.00 150 3.57 54.1 0.37 192.0
2019-12-21 00:30 2.72 9.52 140 3.64 54.3 0.37 188.0
2019-12-21 00:00 2.66 10.00 151 3.60 54.5 0.37 184.0
2019-12-20 23:30 2.59 10.00 146 3.55 54.5 0.47 161.0
2019-12-20 23:00 2.59 9.09 146 3.67 54.5 0.49 167.0
2019-12-20 22:30 2.49 9.52 138 3.69 54.5 0.49 160.0
2019-12-20 22:00 2.43 10.00 143 3.73 54.3 0.47 153.0
2019-12-20 21:30 2.43 9.52 142 3.78 54.3 0.45 152.0
2019-12-20 21:00 2.43 9.52 132 3.78 54.3 0.41 137.0
2019-12-20 20:30 2.56 10.00 135 3.95 54.5 0.33 125.0
2019-12-20 20:00 2.43 10.00 130 4.00 54.5 0.25 100.0
2019-12-20 19:30 2.59 10.00 144 4.03 54.5 0.12 91.0
2019-12-20 19:00 2.49 10.00 143 3.89 54.3 0.16 10.0
2019-12-20 18:30 2.53 10.00 135 3.83 54.3 0.17 5.0
2019-12-20 18:00 2.59 10.53 134 3.86 54.3 0.31 350.0
2019-12-20 17:30 2.62 9.52 136 3.86 54.3 0.33 339.0
2019-12-20 17:00 2.72 3.64 70 3.62 54.3 0.43 330.0
2019-12-20 16:30 2.89 3.45 52 3.58 54.3 0.49 315.0
2019-12-20 16:00 2.89 3.45 59 3.59 54.3 0.47 321.0
2019-12-20 15:30 2.99 9.09 125 3.66 54.3 0.47 299.0
2019-12-20 15:00 2.79 10.00 129 3.55 54.3 0.37 290.0
2019-12-20 14:30 2.62 3.28 50 3.33 54.3 0.31 272.0
2019-12-20 14:00 2.59 10.00 125 3.58 54.3 0.25 270.0
2019-12-20 13:30 2.59 10.00 140 3.40 54.3 0.23 241.0
2019-12-20 13:00 2.43 9.52 132 3.35 54.5 0.27 220.0
2019-12-20 12:30 2.40 10.00 134 3.39 54.7 0.33 219.0
2019-12-20 12:00 2.30 9.52 142 3.43 54.7 0.41 196.0
2019-12-20 11:30 2.23 8.70 140 3.40 54.7 0.45 173.0
2019-12-20 11:00 2.23 9.09 134 3.27 54.7 0.47 175.0
2019-12-20 10:30 2.26 10.00 139 3.43 54.7 0.51 162.0
2019-12-20 10:00 2.20 10.00 140 3.54 54.7 0.49 160.0
2019-12-20 09:30 2.20 10.00 143 3.63 54.7 0.49 154.0
2019-12-20 09:00 2.17 10.53 138 3.49 54.5 0.49 142.0
2019-12-20 08:30 2.33 11.11 130 3.89 54.5 0.41 140.0
2019-12-20 08:00 2.33 9.52 136 3.67 54.5 0.37 117.0
2019-12-20 07:30 2.43 10.53 123 3.77 54.5 0.25 118.0
2019-12-20 07:00 2.53 10.00 127 3.69 54.5 0.16 38.0
2019-12-20 06:30 2.56 9.09 122 3.71 54.5 0.25 28.0
2019-12-20 06:00 2.49 10.00 130 3.68 54.3 0.23 7.0
2019-12-20 05:30 2.46 10.53 123 3.90 54.3 0.31 355.0
2019-12-20 05:00 2.36 10.00 136 3.99 54.3 0.41 338.0
2019-12-20 04:30 2.36 10.53 118 4.09 54.3 0.52 341.0
2019-12-20 04:00 2.33 9.52 118 4.32 54.3 0.51 334.0
2019-12-20 03:30 2.43 9.09 125 4.23 54.3 0.45 331.0
2019-12-20 03:00 2.33 9.09 125 4.17 54.7 0.51 325.0
2019-12-20 02:30 2.30 4.65 85 4.05 54.7 0.45 309.0
2019-12-20 02:00 2.43 9.52 125 4.01 54.9 0.39 296.0
2019-12-20 01:30 2.40 5.26 86 4.04 54.9 0.31 275.0
2019-12-20 01:00 2.40 4.88 81 3.91 54.9 0.35 256.0
2019-12-20 00:30 2.36 5.41 85 3.91 55.0 0.31 231.0
2019-12-20 00:00 2.40 5.41 86 3.95 55.2 0.33 214.0
2019-12-19 23:30 2.36 9.09 140 3.99 55.2 0.29 218.0
2019-12-19 23:00 2.40 9.52 129 3.97 55.2 0.39 191.0
2019-12-19 22:30 2.53 5.41 84 4.07 55.2 0.39 182.0
2019-12-19 22:00 2.49 5.88 87 3.88 55.2 0.35 174.0
2019-12-19 21:30 2.59 5.56 80 3.91 55.2 0.41 188.0
2019-12-19 21:00 2.66 5.71 73 3.88 55.2 0.27 166.0
2019-12-19 20:30 2.76 5.56 70 3.90 55.4 0.19 176.0
2019-12-19 20:00 2.95 6.06 80 4.02 55.4 0.19 179.0
2019-12-19 19:30 2.92 6.06 92 3.92 55.4 0.10 234.0
2019-12-19 19:00 3.02 5.88 69 4.08 55.4 0.10 263.0
2019-12-19 18:30 3.05 5.56 66 4.02 55.4 0.12 314.0
2019-12-19 18:00 3.18 5.88 75 4.04 55.4 0.21 331.0
2019-12-19 17:00 3.58 5.88 73 4.07 55.4 0.47 321.0
2019-12-19 16:30 3.84 5.56 60 4.12 55.4 0.52 316.0
2019-12-19 16:00 4.00 6.06 66 4.07 55.4 0.60 314.0
2019-12-19 15:30 4.33 6.06 63 4.13 55.4 0.60 306.0
2019-12-19 15:00 4.43 5.56 66 4.05 55.2 0.60 304.0
2019-12-19 14:30 4.30 5.00 57 4.02 55.0 0.68 306.0
2019-12-19 14:00 4.20 4.26 51 3.95 55.0 0.66 297.0
2019-12-19 13:30 4.04 3.77 23 3.83 55.2 0.66 281.0
2019-12-19 13:00 4.07 4.17 39 3.82 55.2 0.64 282.0
2019-12-19 12:30 4.13 4.88 57 3.76 55.0 0.52 270.0
2019-12-19 12:00 4.00 3.92 30 3.63 55.2 0.52 254.0
2019-12-19 11:30 3.81 3.85 29 3.63 55.2 0.47 247.0
2019-12-19 11:00 4.04 4.00 39 3.53 55.2 0.47 220.0
2019-12-19 10:30 3.94 3.57 20 3.47 55.4 0.56 207.0
2019-12-19 10:00 3.77 3.77 13 3.42 55.4 0.56 198.0
2019-12-19 09:30 3.67 3.57 7 3.31 55.4 0.72 185.0
2019-12-19 09:00 3.51 3.45 13 3.23 55.2 0.72 176.0
2019-12-19 08:30 3.18 3.23 347 3.11 55.2 0.68 166.0
2019-12-19 08:00 3.05 3.17 345 3.14 55.2 0.74 168.0
2019-12-19 07:30 3.12 3.08 339 3.25 55.2 0.54 148.0
2019-12-19 07:00 3.18 3.64 290 3.26 55.2 0.39 147.0
2019-12-19 06:30 3.22 3.57 300 3.46 55.2 0.21 130.0
2019-12-19 06:00 2.95 3.28 304 3.43 55.2 0.14 94.0
2019-12-19 05:30 2.92 3.57 288 3.47 55.2 0.14 43.0
2019-12-19 05:00 2.66 10.53 123 3.55 55.2 0.23 2.0
2019-12-19 04:30 2.62 3.64 291 3.54 55.4 0.33 352.0
2019-12-19 03:30 2.76 3.92 278 3.82 55.4 0.35 330.0
2019-12-19 03:00 2.76 3.85 286 3.84 55.4 0.35 303.0
2019-12-19 02:30 2.79 3.77 295 3.86 55.4 0.33 313.0
2019-12-19 02:00 2.69 3.64 302 3.83 55.4 0.35 299.0
2019-12-19 01:30 2.92 3.92 292 3.91 55.4 0.33 272.0
2019-12-19 01:00 2.89 3.85 296 3.66 55.6 0.39 242.0
2019-12-19 00:30 2.99 3.39 306 3.76 55.6 0.37 243.0
2019-12-19 00:00 2.89 3.28 306 3.63 55.8 0.27 239.0
2019-12-18 23:30 2.72 6.25 93 3.70 55.8 0.37 230.0
2019-12-18 23:00 2.72 6.67 115 3.79 55.9 0.33 222.0
2019-12-18 22:30 2.76 5.88 91 3.96 55.9 0.37 207.0
2019-12-18 22:00 2.82 7.41 157 4.00 56.1 0.41 204.0
2019-12-18 21:30 2.92 7.69 168 3.98 56.1 0.39 189.0
2019-12-18 21:00 3.18 7.69 156 4.05 56.1 0.43 189.0
2019-12-18 20:30 3.22 7.69 140 4.01 56.3 0.47 184.0
2019-12-18 20:00 3.25 7.69 155 3.94 56.3 0.43 180.0
2019-12-18 19:30 3.22 7.14 118 3.89 56.5 0.29 176.0
2019-12-18 19:00 3.51 7.41 125 4.24 56.5 0.21 178.0
2019-12-18 18:30 3.64 6.45 89 4.28 56.5 0.10 148.0
2019-12-18 18:00 3.48 7.41 126 4.37 56.5 0.06 44.0
2019-12-18 17:30 3.74 6.45 70 4.33 56.5 0.04 174.0
2019-12-18 16:30 4.20 6.90 95 4.42 56.3 0.19 343.0
2019-12-18 16:00 4.46 7.41 131 4.40 56.3 0.25 326.0
2019-12-18 15:30 4.43 7.41 152 4.49 56.1 0.37 319.0
2019-12-18 15:00 4.49 6.25 61 4.42 56.1 0.54 313.0
2019-12-18 14:30 4.53 4.00 5 4.47 56.1 0.51 326.0
2019-12-18 14:00 4.56 7.69 177 4.45 56.3 0.56 312.0
2019-12-18 13:30 4.46 6.45 90 4.46 56.3 0.68 319.0
2019-12-18 13:00 4.43 6.06 79 4.34 56.3 0.72 313.0
2019-12-18 12:30 4.76 7.41 161 4.48 56.3 0.68 294.0
2019-12-18 12:00 4.63 7.69 171 4.43 56.3 0.58 296.0
2019-12-18 11:30 4.72 7.69 170 4.29 56.5 0.51 284.0
2019-12-18 11:00 4.49 8.33 170 4.15 56.5 0.51 266.0
2019-12-18 10:30 4.43 8.00 174 4.24 56.5 0.37 224.0
2019-12-18 10:00 4.40 8.00 175 4.13 56.5 0.47 219.0
2019-12-18 09:30 4.46 8.00 172 4.28 56.7 0.52 185.0
2019-12-18 09:00 4.49 8.33 173 4.46
2019-12-18 08:00 4.95 8.33 170 4.80 56.7 0.66 167.0
2019-12-18 07:30 5.09 8.70 169 4.87 56.7 0.66 153.0
2019-12-18 07:00 5.38 8.70 172 5.44 56.7 0.60 140.0
2019-12-18 06:30 5.35 7.69 178 5.64 56.7 0.43 107.0
2019-12-18 06:00 5.12 8.33 171 5.48 56.8 0.43 90.0
2019-12-18 05:30 5.12 8.33 172 5.47 56.7 0.31 59.0
2019-12-18 05:00 5.12 8.00 172 5.27 56.7 0.39 54.0
2019-12-18 04:30 4.95 7.41 168 5.06 56.7 0.37 41.0
2019-12-18 04:00 5.09 7.69 172 5.06 56.5 0.31 17.0
2019-12-18 03:30 4.99 7.69 179 4.75 56.5 0.41 28.0
2019-12-18 03:00 5.18 7.14 171 4.99
2019-12-18 02:00 5.58 6.67 173 5.08 56.5 0.35 8.0
2019-12-18 01:30 5.12 7.14 167 4.87 56.5 0.45 1.0
2019-12-18 01:00 5.02 7.14 172 4.82 56.5 0.33 349.0
2019-12-18 00:30 4.82 7.41 175 4.82 56.5 0.27 328.0
2019-12-18 00:00 4.59 6.90 170 4.85 56.5 0.16 320.0
2019-12-17 23:30 4.49 7.41 170 4.92 56.5 0.06 346.0
2019-12-17 23:00 4.63 6.90 169 4.97 56.5 0.08 213.0
2019-12-17 22:30 4.56 7.41 168 5.06 56.5 0.14 188.0
2019-12-17 22:00 4.49 7.14 162 5.07 56.5 0.29 150.0
2019-12-17 21:30 4.89 7.14 164 5.16 56.5 0.43 141.0
2019-12-17 21:00 4.66 6.90 170 4.93 56.5 0.58 142.0
2019-12-17 20:30 4.72 7.41 169 4.88 56.5 0.56 130.0
2019-12-17 20:00 4.36 7.41 171 4.70 56.5 0.80 130.0
2019-12-17 19:30 4.36 7.14 165 5.03 56.5 0.62 132.0
2019-12-17 19:00 4.13 7.14 168 5.15 56.7 0.56 126.0
2019-12-17 18:30 4.10 7.14 179 5.28 56.8 0.60 124.0
2019-12-17 18:00 4.20 6.90 168 5.34 56.5 0.64 135.0
2019-12-17 17:30 4.20 7.14 167 5.37 56.5 0.54 116.0
2019-12-17 17:00 4.10 7.14 173 5.41 56.7 0.41 85.0
2019-12-17 16:30 4.20 7.69 168 5.39 56.8 0.37 70.0
2019-12-17 16:00 4.36 6.90 178 5.30 56.7 0.41 40.0
2019-12-17 15:30 4.36 6.67 172 5.39 56.5 0.35 20.0
2019-12-17 15:00 4.33 6.67 174 5.30 56.5 0.45 10.0
2019-12-17 14:30 4.33 6.90 169 5.23 56.1 0.43 350.0
2019-12-17 14:00 4.66 6.90 175 5.30 56.1 0.47 353.0
2019-12-17 13:30 4.59 7.41 170 5.09 56.1 0.49 347.0
2019-12-17 13:00 4.89 6.90 172 5.22 56.1 0.52 331.0
2019-12-17 12:30 4.53 6.67 171 4.96 56.1 0.43 316.0
2019-12-17 12:00 4.95 6.45 169 5.25 56.1 0.35 328.0
2019-12-17 11:30 5.15 6.67 168 5.29 56.1 0.27 296.0
2019-12-17 11:00 4.76 6.90 168 5.21 56.1 0.19 292.0
2019-12-17 10:30 4.89 6.90 171 5.34 56.1 0.16 291.0
2019-12-17 09:30 4.79 6.25 178 5.33 56.1 0.14 154.0
2019-12-17 09:00 4.63 6.45 174 5.29 56.1 0.27 149.0
2019-12-17 08:30 4.59 6.45 179 5.32 56.3 0.35 142.0
2019-12-17 08:00 4.49 6.06 174 5.32 56.3 0.45 137.0
2019-12-17 07:30 4.36 6.06 172 5.26 56.3 0.49 134.0
2019-12-17 07:00 4.36 6.06 172 5.12 56.1 0.45 123.0
2019-12-17 06:30 4.13 5.71 172 5.11 56.1 0.45 123.0
2019-12-17 06:00 4.07 6.06 170 5.02 56.1 0.43 111.0
2019-12-17 05:30 3.74 5.26 171 4.82 56.3 0.31 81.0
2019-12-17 05:00 3.44 5.13 169 4.66 56.1 0.33 54.0
2019-12-17 04:30 3.18 4.55 169 4.50 56.1 0.35 25.0
2019-12-17 04:00 2.85 10.53 121 4.37 56.1 0.35 18.0
2019-12-17 03:30 2.62 10.00 131 4.57 56.3 0.41 13.0
2019-12-17 03:00 2.20 10.00 132 4.31 56.5 0.52 357.0
2019-12-17 02:30 2.17 10.00 135 4.72 56.5 0.43 344.0
2019-12-17 02:00 2.03 10.00 130 5.45 56.3 0.52 339.0
2019-12-17 01:30 2.00 10.00 119 5.84 56.3 0.52 343.0
2019-12-17 01:00 2.00 9.09 124 5.84 56.3 0.47 332.0
2019-12-17 00:30 2.03 9.52 131 5.54 56.5 0.47 325.0
2019-12-17 00:00 2.13 9.09 138 5.48 56.3 0.41 315.0
2019-12-16 23:30 2.10 8.70 135 5.18 56.5 0.41 314.0
2019-12-16 23:00 2.10 8.70 150 5.14 56.5 0.35 313.0
2019-12-16 22:30 2.13 8.70 144 5.10 56.3 0.39 307.0
2019-12-16 22:00 1.90 9.52 133 5.47 56.5 0.17 282.0
2019-12-16 21:30 1.97 9.52 132 6.05 56.5 0.17 205.0
2019-12-16 21:00 2.00 9.52 142 6.47 56.7 0.17 178.0
2019-12-16 20:30 1.90 10.00 143 6.43 56.8 0.33 154.0
2019-12-16 20:00 1.77 9.52 143 6.15 56.8 0.43 142.0
2019-12-16 19:30 1.84 10.00 141 6.26 56.7 0.41 130.0
2019-12-16 19:00 1.77 10.00 136 6.49 56.7 0.41 140.0
2019-12-16 18:30 1.77 10.53 141 6.68 56.5 0.41 131.0
2019-12-16 18:00 1.87 10.53 147 7.01 56.8 0.21 117.0
2019-12-16 17:30 1.71 10.00 124 6.75 56.8 0.29 95.0
2019-12-16 17:00 1.77 10.00 142 6.62 56.3 0.31 88.0
2019-12-16 16:30 1.87 10.00 127 6.89 56.5 0.27 37.0
2019-12-16 16:00 1.90 10.53 146 6.81 56.1 0.39 22.0
2019-12-16 15:30 1.90 10.00 134 6.56 55.8 0.43 0.0
2019-12-16 15:00 1.94 10.00 136 6.34 55.6 0.45 355.0
2019-12-16 14:30 1.90 9.09 139 6.24 55.2 0.58 347.0
2019-12-16 14:00 2.10 9.09 132 6.39 55.0 0.54 334.0
2019-12-16 13:30 2.03 10.00 139 6.08 55.0 0.60 328.0
2019-12-16 13:00 1.97 8.70 137 5.69 54.9 0.66 314.0
2019-12-16 12:30 2.03 10.00 143 5.83 54.9 0.62 302.0
2019-12-16 12:00 2.20 9.52 134 5.65 54.9 0.60 302.0
2019-12-16 11:30 2.13 10.00 130 5.43 54.9 0.62 296.0
2019-12-16 11:00 2.17 9.09 133 5.57 54.7 0.54 296.0
2019-12-16 10:30 2.17 9.52 124 5.43 54.7 0.51 291.0
2019-12-16 10:00 2.20 9.52 136 5.37 54.7 0.41 278.0
2019-12-16 09:30 2.23 9.52 134 5.30 55.2 0.27 246.0
2019-12-16 09:00 2.20 9.09 138 5.02 55.2 0.29 210.0
2019-12-16 08:30 2.33 9.52 140 5.39 55.4 0.33 185.0
2019-12-16 08:00 2.20 10.00 145 5.30 55.4 0.52 171.0
2019-12-16 07:30 2.33 10.00 139 5.40 55.6 0.62 160.0
2019-12-16 07:00 2.30 10.00 136 5.36 55.4 0.60 150.0
2019-12-16 06:30 2.33 10.53 136 5.12 55.4 0.66 144.0
2019-12-16 06:00 2.43 10.00 140 5.00 55.4 0.58 141.0
2019-12-16 05:30 2.53 10.00 133 5.11 55.6 0.62 134.0
2019-12-16 05:00 2.59 10.00 136 4.90 55.6 0.58 132.0
2019-12-16 04:30 2.69 9.09 130 4.69 55.6 0.49 116.0
2019-12-16 04:00 2.66 10.53 129 4.54 55.6 0.37 103.0
2019-12-16 03:30 2.82 9.52 130 4.59 55.6 0.25 75.0
2019-12-16 03:00 2.69 10.00 145 4.36 55.4 0.25 57.0
2019-12-16 02:30 2.82 10.00 134 4.36 55.4 0.23 55.0
2019-12-16 02:00 2.76 10.00 135 4.26 55.4 0.25 38.0
2019-12-16 01:30 2.92 10.00 128 4.42 55.2 0.39 9.0
2019-12-16 01:00 2.76 10.00 135 4.31 55.4 0.31 1.0
2019-12-16 00:30 2.95 10.00 151 4.39 55.4 0.27 322.0
2019-12-16 00:00 2.99 9.52 136 4.41 55.6 0.29 331.0
2019-12-15 23:30 2.95 9.52 144 4.53 55.6 0.33 317.0
2019-12-15 23:00 3.02 10.00 141 4.57 55.4 0.33 320.0
2019-12-15 22:30 2.95 9.52 138 4.57 55.4 0.25 309.0
2019-12-15 21:30 2.82 9.09 150 4.64 55.6 0.10 242.0
2019-12-15 21:00 2.92 8.70 144 4.66 55.6 0.12 174.0
2019-12-15 20:30 2.72 8.70 149 4.57 55.6 0.23 167.0
2019-12-15 20:00 2.95 10.00 143 4.90 55.8 0.41 163.0
2019-12-15 19:30 2.76 9.52 144 4.99 55.8 0.51 155.0
2019-12-15 19:00 2.72 8.00 168 4.80 55.8 0.52 159.0
2019-12-15 18:30 2.85 8.70 149 4.92 55.9 0.60 155.0
2019-12-15 18:00 2.85 10.00 146 4.83 55.9 0.72 151.0
2019-12-15 17:30 2.99 10.53 139 4.97 55.9 0.78 147.0
2019-12-15 17:00 2.92 10.00 144 4.81 55.8 0.78 142.0
2019-12-15 16:30 3.05 9.09 141 4.82 55.9 0.82 129.0
2019-12-15 16:00 3.25 6.25 205 4.85 55.9 0.74 125.0
2019-12-15 15:30 3.18 8.33 164 4.84 55.6 0.78 118.0
2019-12-15 15:00 3.15 8.70 159 4.79 55.6 0.60 99.0
2019-12-15 14:30 3.44 6.67 198 4.90 55.6 0.56 94.0
2019-12-15 14:00 3.58 6.45 212 5.05 55.6 0.41 69.0
2019-12-15 13:30 3.64 5.88 211 4.86 55.6 0.37 31.0
2019-12-15 13:00 3.81 6.06 212 5.03 55.6 0.39 25.0
2019-12-15 12:30 3.81 6.90 206 5.00 55.4 0.39 357.0
2019-12-15 12:00 4.07 6.06 210 5.01 55.2 0.47 352.0
2019-12-15 11:30 4.23 6.45 211 5.01 55.2 0.43 348.0
2019-12-15 11:00 4.46 6.25 211 4.89 55.2 0.37 350.0
2019-12-15 10:30 4.40 6.25 212 4.95 55.2 0.39 352.0
2019-12-15 10:00 4.95 7.14 192 4.97 55.2 0.23 17.0
2019-12-15 09:30 4.76 6.90 207 4.70 55.2 0.16 111.0
2019-12-15 09:00 5.12 6.06 213 4.95 55.2 0.12 85.0
2019-12-15 08:30 4.82 7.14 201 4.71 55.2 0.27 123.0
2019-12-15 08:00 5.12 7.69 192 4.90 55.2 0.25 118.0
2019-12-15 07:30 5.35 8.33 176 4.98 55.2 0.43 140.0
2019-12-15 07:00 5.48 6.90 209 5.00 55.4 0.60 138.0
2019-12-15 06:30 6.04 7.69 197 5.13 55.4 0.68 143.0
2019-12-15 06:00 6.27 7.41 203 5.01 55.4 0.84 141.0
2019-12-15 05:30 6.17 7.41 204 4.98 55.6 0.87 136.0
2019-12-15 05:00 6.59 8.70 181 5.09 55.6 0.86 129.0
2019-12-15 04:30 7.05 9.09 183 5.29 55.8 0.82 121.0
2019-12-15 04:00 7.09 7.41 192 5.23 55.8 0.78 122.0
2019-12-15 03:30 7.09 8.33 189 5.11 55.8 0.82 114.0
2019-12-15 03:00 7.28 8.00 191 5.23 55.8 0.80 103.0
2019-12-15 02:30 6.99 6.90 202 5.18 55.6 0.80 102.0
2019-12-15 02:00 7.58 8.33 181 5.44 55.8 0.64 85.0
2019-12-15 01:30 7.15 8.33 179 5.23 55.8 0.64 79.0
2019-12-15 01:00 6.89 8.70 176 5.09 55.8 0.60 74.0
2019-12-15 00:30 6.86 8.00 173 5.18 55.8 0.47 61.0
2019-12-15 00:00 6.43 8.00 181 5.10 55.8 0.39 58.0
2019-12-14 23:30 6.46 7.14 186 5.11 55.8 0.31 53.0
2019-12-14 23:00 6.23 6.45 193 5.04 55.8 0.37 50.0
2019-12-14 22:30 6.17 7.14 189 4.98 55.6 0.45 75.0
2019-12-14 22:00 5.87 7.14 190 5.00 55.6 0.37 62.0
2019-12-14 21:30 6.10 7.14 183 5.21 55.8 0.27 52.0
2019-12-14 21:00 5.91 7.41 182 5.11 55.8 0.16 49.0
2019-12-14 20:30 5.71 6.90 182 5.08 55.8 0.19 91.0
2019-12-14 20:00 5.41 6.90 183 4.95 55.8 0.29 112.0
2019-12-14 19:30 5.25 6.25 193 4.80 55.8 0.35 131.0
2019-12-14 19:00 5.05 6.67 184 4.84 55.6 0.52 133.0
2019-12-14 18:30 4.86 6.90 181 4.72 55.6 0.80 137.0
2019-12-14 18:00 4.99 5.56 200 4.67 55.6 0.89 140.0
2019-12-14 17:30 5.18 5.71 192 4.60 55.6 1.01 132.0
2019-12-14 17:00 5.02 6.90 176 4.53 55.6 1.03 134.0
2019-12-14 16:30 4.59 7.14 166 4.39 55.6 0.97 126.0
2019-12-14 16:00 4.46 6.90 171 4.58 55.8 0.84 127.0
2019-12-14 15:30 4.46 6.67 174 4.45 55.9 0.84 113.0
2019-12-14 15:00 4.23 8.00 159 4.42 56.1 0.93 112.0
2019-12-14 14:30 4.36 6.90 176 4.75 56.3 0.56 91.0
2019-12-14 14:00 4.27 7.14 166 4.67 56.5 0.66 84.0
2019-12-14 13:30 4.40 7.14 175 4.97 56.3 0.49 81.0
2019-12-14 13:00 4.53 7.14 163 5.14 56.1 0.43 49.0
2019-12-14 12:30 4.53 7.14 176 5.10 56.1 0.45 42.0
2019-12-14 12:00 4.66 7.14 162 5.04 56.1 0.33 38.0
2019-12-14 11:30 4.66 7.69 175 4.96 56.1 0.45 17.0
2019-12-14 11:00 4.76 6.90 179 5.00 55.9 0.43 7.0
2019-12-14 10:30 5.12 7.14 180 5.14 55.8 0.39 4.0
2019-12-14 10:00 4.89 7.69 171 5.10 55.8 0.41 1.0
2019-12-14 09:30 5.18 7.69 176 5.23 55.8 0.29 340.0
2019-12-14 09:00 5.15 7.69 166 5.29 55.6 0.23 358.0
2019-12-14 08:30 5.22 7.69 173 5.39 55.6 0.17 335.0
2019-12-14 08:00 5.77 7.41 174 5.69 55.6 0.14 25.0
2019-12-14 07:30 5.38 7.41 170 5.57 55.6 0.08 126.0
2019-12-14 07:00 5.35 7.69 168 5.69 55.6 0.19 146.0
2019-12-14 06:30 5.05 7.41 173 5.47 55.6 0.29 139.0
2019-12-14 06:00 5.09 7.14 165 5.60 55.8 0.33 145.0
2019-12-14 05:30 4.79 6.67 160 5.48 55.9 0.45 155.0
2019-12-14 05:00 4.33 6.45 160 5.17 55.9 0.43 146.0
2019-12-14 04:30 4.49 6.67 166 5.17 56.1 0.45 143.0
2019-12-14 04:00 4.23 6.90 161 5.20 56.1 0.49 135.0
2019-12-14 03:30 4.07 6.90 162 5.19 56.1 0.56 134.0
2019-12-14 03:00 4.13 6.90 151 5.18 56.5 0.49 121.0
2019-12-14 02:30 4.23 6.06 155 5.16 56.5 0.43 112.0
2019-12-14 02:00 4.36 6.25 152 5.03 56.7 0.37 84.0
2019-12-14 01:30 4.46 6.67 154 5.06 56.8 0.33 36.0
2019-12-14 01:00 4.56 6.06 153 4.88 56.7 0.33 10.0
2019-12-14 00:30 4.82 6.25 157 4.86 56.7 0.35 358.0
2019-12-14 00:00 4.92 6.06 157 4.83 56.5 0.45 351.0
2019-12-13 23:30 4.86 5.71 148 4.76 56.5 0.45 344.0
2019-12-13 23:00 4.89 5.41 146 4.74 56.5 0.51 332.0
2019-12-13 22:30 4.69 6.25 152 4.93 56.3 0.58 312.0
2019-12-13 22:00 4.17 5.26 136 4.78 56.1 0.43 315.0
2019-12-13 21:30 3.97 7.69 131 4.73 56.1 0.49 305.0
2019-12-13 21:00 3.90 5.88 126 4.62 56.1 0.39 280.0
2019-12-13 20:30 3.87 6.25 125 4.35 55.9 0.51 275.0
2019-12-13 20:00 3.77 5.56 111 4.29 55.8 0.35 257.0
2019-12-13 19:30 3.74 8.33 135 4.12 55.8 0.49 223.0
2019-12-13 19:00 3.81 8.70 135 4.37 55.8 0.56 218.0
2019-12-13 18:30 3.54 6.90 146 3.98 55.6 0.58 201.0
2019-12-13 18:00 3.58 6.90 135 4.07 55.6 0.56 182.0
2019-12-13 17:30 3.54 7.14 143 4.09 55.8 0.70 183.0
2019-12-13 17:00 3.64 9.52 146 4.21 55.9 0.72 180.0
2019-12-13 16:30 3.71 9.09 143 4.13 56.1 0.58 171.0
2019-12-13 16:00 3.58 6.25 129 4.16 56.1 0.51 161.0
2019-12-13 15:30 3.71 8.70 142 4.26 56.3 0.52 157.0
2019-12-13 15:00 3.67 4.88 110 4.16 56.5 0.41 156.0
2019-12-13 14:30 3.81 6.25 129 4.29 56.5 0.35 143.0
2019-12-13 14:00 3.90 6.25 113 4.39 56.5 0.33 120.0
2019-12-13 13:30 3.90 5.71 104 4.48 56.5 0.27 87.0
2019-12-13 13:00 3.97 6.06 102 4.62 56.5 0.27 43.0
2019-12-13 12:30 3.74 6.67 111 4.61 56.5 0.37 24.0
2019-12-13 12:00 3.74 5.71 103 4.64 56.3 0.52 11.0
2019-12-13 11:30 3.90 6.06 95 4.58 56.3 0.41 355.0
2019-12-13 11:00 4.10 5.71 92 4.61 56.3 0.54 349.0
2019-12-13 10:30 4.40 8.70 133 4.72 56.1 0.51 341.0
2019-12-13 10:00 4.30 6.06 94 4.44 56.3 0.64 332.0
2019-12-13 09:30 4.23 6.45 99 4.49 56.1 0.52 320.0
2019-12-13 09:00 4.63 5.56 85 4.46 55.9 0.54 317.0
2019-12-13 08:30 4.20 3.92 74 4.33 55.9 0.62 296.0
2019-12-13 08:00 4.40 6.67 99 4.41 55.9 0.56 307.0
2019-12-13 07:30 4.59 6.25 97 4.22 55.8 0.54 279.0
2019-12-13 07:00 4.40 4.44 78 4.12 55.6 0.58 264.0
2019-12-13 06:30 4.46 7.14 109 4.14 55.4 0.43 253.0
2019-12-13 06:00 4.40 7.14 110 4.18 55.2 0.41 239.0
2019-12-13 05:30 4.40 6.06 104 4.17 55.2 0.43 234.0
2019-12-13 05:00 4.53 6.25 100 4.12 55.2 0.49 204.0
2019-12-13 04:30 4.49 5.56 86 4.11 55.0 0.52 215.0
2019-12-13 04:00 4.66 6.67 91 4.24 55.2 0.51 208.0
2019-12-13 03:30 4.95 6.06 88 4.34 55.2 0.54 197.0
2019-12-13 03:00 5.15 7.14 105 4.38 55.2 0.51 194.0
2019-12-13 02:30 5.05 6.25 83 4.43 55.4 0.45 195.0
2019-12-13 02:00 4.95 6.67 95 4.43 55.6 0.27 219.0
2019-12-13 01:30 5.22 6.25 80 4.48 55.6 0.23 237.0
2019-12-13 01:00 5.15 6.25 83 4.58 55.6 0.19 280.0
2019-12-13 00:30 5.31 6.67 87 4.66 55.4 0.16 287.0
2019-12-13 00:00 5.41 7.14 94 4.71 55.2 0.25 321.0
2019-12-12 23:30 5.22 4.35 69 4.47 55.2 0.43 321.0
2019-12-12 23:00 5.12 6.67 83 4.60 55.2 0.54 320.0
2019-12-12 22:30 5.48 7.41 104 4.62 55.2 0.60 328.0
2019-12-12 22:00 5.15 5.71 73 4.45 55.2 0.66 309.0
2019-12-12 21:30 5.05 6.67 80 4.40 55.2 0.66 309.0
2019-12-12 21:00 5.18 7.14 100 4.35 55.4 0.72 299.0
2019-12-12 20:30 4.79 4.00 65 4.21 55.6 0.68 294.0
2019-12-12 20:00 5.09 4.17 52 4.18 55.6 0.68 281.0
2019-12-12 19:30 4.89 4.00 51 4.08 55.6 0.60 266.0
2019-12-12 19:00 5.02 4.17 55 4.12 55.6 0.66 246.0
2019-12-12 18:30 4.76 4.00 55 3.94 55.8 0.70 246.0
2019-12-12 18:00 4.69 4.17 58 3.97 55.8 0.56 241.0
2019-12-12 17:30 4.59 4.35 60 3.95 55.9 0.62 224.0
2019-12-12 17:00 4.59 6.90 81 3.97 56.1 0.84 208.0
2019-12-12 16:30 4.99 6.67 75 4.11 56.1 0.66 219.0
2019-12-12 16:00 4.99 5.88 78 4.24 56.1 0.62 208.0
2019-12-12 15:30 4.95 6.67 77 4.21 56.3 0.70 205.0
2019-12-12 15:00 5.02 6.45 77 4.31 56.5 0.66 211.0
2019-12-12 14:30 5.09 5.88 70 4.41 56.5 0.60 207.0
2019-12-12 14:00 5.15 6.25 67 4.40 56.5 0.51 207.0
2019-12-12 13:30 5.18 6.06 70 4.45 56.5 0.37 214.0
2019-12-12 13:00 5.05 6.67 79 4.39 56.5 0.29 214.0
2019-12-12 12:30 5.25 6.25 66 4.39 56.5 0.29 236.0
2019-12-12 12:00 4.86 5.56 77 4.36 56.5 0.27 264.0
2019-12-12 11:30 4.95 5.88 71 4.32 56.5 0.19 289.0
2019-12-12 11:00 5.02 5.71 68 4.42 56.5 0.31 289.0
2019-12-12 10:30 4.95 5.00 70 4.26 56.5 0.41 317.0
2019-12-12 10:00 4.40 5.56 65 4.23 56.5 0.49 307.0
2019-12-12 09:30 4.63 4.55 62 4.33 56.5 0.52 323.0
2019-12-12 09:00 4.27 5.71 74 4.24 56.5 0.56 307.0
2019-12-12 08:30 3.97 4.76 64 4.21 56.5 0.58 309.0
2019-12-12 08:00 3.81 5.56 82 4.09 56.5 0.64 317.0
2019-12-12 07:30 3.64 8.70 136 4.09 56.5 0.45 294.0
2019-12-12 07:00 3.71 3.70 59 4.00 56.5 0.41 275.0
2019-12-12 06:30 3.48 8.70 137 3.93 56.5 0.33 256.0
2019-12-12 06:00 3.31 3.51 51 3.77 56.7 0.31 239.0
2019-12-12 05:30 3.38 3.77 53 3.77 56.7 0.35 233.0
2019-12-12 05:00 3.35 8.00 128 3.71 56.7 0.35 216.0
2019-12-12 04:30 3.58 3.28 30 3.67 56.7 0.39 206.0
2019-12-12 04:00 3.54 3.08 12 3.61 56.7 0.49 198.0
2019-12-12 03:30 3.28 3.13 358 3.49 56.8 0.51 182.0
2019-12-12 03:00 3.48 9.09 142 3.59 56.8 0.52 172.0
2019-12-12 02:00 3.44 3.51 339 3.53 57.0 0.35 161.0
2019-12-12 01:30 3.51 3.70 340 3.68 57.0 0.23 150.0
2019-12-12 01:00 3.77 9.09 146 3.88 57.0 0.23 139.0
2019-12-12 00:30 3.64 3.77 325 3.76 57.0 0.21 128.0
2019-12-12 00:00 3.58 3.51 340 3.92 57.0 0.16 59.0
2019-12-11 23:30 3.44 3.70 348 4.03 57.0 0.12 56.0
2019-12-11 23:00 3.64 3.92 334 4.01 57.0 0.19 353.0
2019-12-11 22:30 3.64 3.77 341 4.08 57.0 0.17 318.0
2019-12-11 22:00 3.74 8.70 129 4.07 57.0 0.39 320.0
2019-12-11 21:30 3.77 9.09 135 4.14 57.0 0.49 315.0
2019-12-11 21:00 3.44 8.70 129 4.06 57.0 0.56 304.0
2019-12-11 20:30 3.38 8.00 120 3.89 56.8 0.49 296.0
2019-12-11 20:00 3.22 8.70 127 4.15 56.8 0.45 283.0
2019-12-11 19:30 3.25 9.09 141 4.21 57.0 0.52 275.0
2019-12-11 19:00 3.22 8.70 137 4.05 56.8 0.51 258.0
2019-12-11 18:30 3.31 8.33 149 3.93 56.8 0.49 242.0
2019-12-11 18:00 3.15 8.70 141 3.73 56.7 0.58 222.0
2019-12-11 17:30 3.25 8.70 139 3.82 56.7 0.58 227.0
2019-12-11 17:00 3.22 9.09 139 3.67 56.7 0.76 211.0
2019-12-11 16:30 3.54 8.70 141 3.76 56.7 0.84 210.0
2019-12-11 16:00 3.87 3.51 17 3.66 56.7 0.84 197.0
2019-12-11 15:30 4.00 3.92 356 3.78 56.5 0.86 202.0
2019-12-11 15:00 4.27 3.85 360 3.72 56.5 0.82 190.0
2019-12-11 14:30 4.49 3.64 353 3.66 56.5 0.97 189.0
2019-12-11 14:00 4.13 3.51 344 3.66 56.5 0.87 179.0
2019-12-11 13:30 3.90 8.70 144 3.76 56.5 0.80 182.0
2019-12-11 13:00 3.81 8.70 134 3.86 56.5 0.70 174.0
2019-12-11 12:30 4.13 7.14 154 3.95 56.7 0.78 167.0
2019-12-11 12:00 4.04 3.70 348 3.92 56.7 0.60 164.0
2019-12-11 11:30 4.13 8.33 151 4.08 56.7 0.49 154.0
2019-12-11 11:00 4.07 8.70 153 4.16 56.7 0.37 159.0
2019-12-11 10:30 4.04 9.09 140 4.16 56.7 0.10 171.0
2019-12-11 10:00 3.74 8.00 137 4.34 56.7 0.06 117.0
2019-12-11 09:30 4.00 8.70 142 4.80 56.7 0.06 125.0
2019-12-11 09:00 3.81 8.70 142 4.68 56.7 0.14 311.0
2019-12-11 08:30 3.94 8.70 148 4.84 56.7 0.10 325.0
2019-12-11 08:00 3.90 8.00 144 4.90 56.7 0.17 293.0
2019-12-11 07:30 4.07 7.69 140 5.03 56.8 0.33 300.0
2019-12-11 07:00 3.87 8.33 152 4.86 56.7 0.21 286.0
2019-12-11 06:30 3.81 8.00 142 4.81 56.5 0.14 287.0
2019-12-11 06:00 4.04 8.00 142 5.02 56.3 0.23 241.0
2019-12-11 05:30 3.90 8.70 142 4.98 56.1 0.31 221.0
2019-12-11 05:00 4.00 6.67 168 5.09 56.1 0.41 202.0
2019-12-11 04:30 3.94 6.25 172 5.13 56.1 0.39 188.0
2019-12-11 04:00 3.71 8.33 143 5.09 56.1 0.41 163.0
2019-12-11 03:30 3.94 8.33 154 5.30 56.1 0.43 152.0
2019-12-11 03:00 3.81 6.90 161 5.42 56.3 0.51 147.0
2019-12-11 02:30 3.97 6.90 169 5.43 56.3 0.62 142.0
2019-12-11 02:00 3.87 6.90 168 5.32 56.5 0.66 140.0
2019-12-11 01:30 3.74 6.67 173 5.09 57.0 0.60 141.0
2019-12-11 01:00 3.84 6.25 167 5.18 57.2 0.49 125.0
2019-12-11 00:30 3.71 6.25 170 5.12 57.4 0.47 99.0
2019-12-11 00:00 3.90 6.67 169 5.15 57.6 0.39 70.0
2019-12-10 23:30 3.77 8.70 146 5.00 57.6 0.35 76.0
2019-12-10 23:00 3.77 5.56 181 4.84 57.6 0.41 38.0
2019-12-10 22:30 3.81 8.70 136 4.80 57.6 0.29 21.0
2019-12-10 22:00 3.97 8.70 139 4.91 57.6 0.39 355.0
2019-12-10 21:30 3.90 5.71 170 4.67 57.4 0.39 350.0
2019-12-10 21:00 3.97 5.88 174 4.81 57.4 0.39 344.0
2019-12-10 20:30 3.94 8.00 145 4.86 57.2 0.37 323.0
2019-12-10 20:00 3.94 7.69 143 4.83 57.2 0.37 310.0
2019-12-10 19:30 4.00 6.25 165 4.89 57.0 0.25 298.0
2019-12-10 19:00 4.17 5.88 178 4.90 57.0 0.23 294.0
2019-12-10 18:30 4.00 5.88 178 4.97 57.0 0.19 278.0
2019-12-10 18:00 4.04 5.88 176 4.94 56.8 0.23 271.0
2019-12-10 17:30 3.87 5.88 183 4.89 56.7 0.23 231.0
2019-12-10 17:00 4.07 6.25 166 5.06 56.8 0.27 211.0
2019-12-10 16:30 4.04 6.45 170 5.04 56.7 0.33 180.0
2019-12-10 16:00 4.13 7.69 154 5.06 56.5 0.41 168.0
2019-12-10 15:30 3.90 6.06 172 5.03 56.7 0.49 152.0
2019-12-10 15:00 4.13 9.09 142 5.36 56.8 0.70 146.0
2019-12-10 14:30 4.13 6.25 173 5.23 57.0 0.58 133.0
2019-12-10 14:00 4.10 8.33 143 5.25 57.0 0.70 133.0
2019-12-10 13:30 4.07 8.33 137 5.34 57.0 0.62 124.0
2019-12-10 13:00 3.97 5.88 179 5.09 57.0 0.62 114.0
2019-12-10 12:30 3.90 8.00 143 5.11 57.0 0.60 99.0
2019-12-10 12:00 4.04 8.70 146 5.11 57.0 0.58 87.0
2019-12-10 11:30 3.90 8.33 137 5.04 57.0 0.66 76.0
2019-12-10 11:00 3.71 8.33 143 4.77 57.0 0.62 62.0
2019-12-10 10:30 3.71 8.70 144 4.76 57.0 0.58 42.0
2019-12-10 10:00 3.64 5.41 162 4.66 56.8 0.49 40.0
2019-12-10 09:30 3.48 8.70 135 4.75 56.8 0.37 35.0
2019-12-10 09:00 3.64 8.33 146 4.82 56.7 0.43 14.0
2019-12-10 08:30 3.48 8.33 141 4.62 56.7 0.43 0.0
2019-12-10 08:00 3.54 8.33 145 4.77 56.7 0.45 353.0
2019-12-10 07:30 3.61 8.33 139 4.84 56.5 0.35 341.0
2019-12-10 07:00 3.74 8.00 126 4.90 56.3 0.33 335.0
2019-12-10 06:30 3.58 8.00 140 4.72 56.3 0.27 323.0
2019-12-10 06:00 3.67 8.33 141 5.00 56.3 0.19 307.0
2019-12-10 05:30 3.67 8.00 144 4.99 56.5 0.14 296.0
2019-12-10 05:00 3.71 8.70 144 5.09 56.5 0.14 288.0
2019-12-10 04:30 3.25 8.00 134 4.95 56.5 0.16 187.0
2019-12-10 04:00 3.22 8.70 133 5.23 56.3 0.21 167.0
2019-12-10 03:30 3.08 8.70 140 5.20 56.5 0.31 148.0
2019-12-10 03:00 3.48 8.33 139 5.54 56.5 0.39 133.0
2019-12-10 02:30 3.22 8.70 145 5.54 56.5 0.47 132.0
2019-12-10 02:00 3.22 9.09 139 5.68 56.5 0.54 126.0
2019-12-10 01:30 3.22 9.09 146 5.65 56.5 0.51 119.0
2019-12-10 01:00 3.31 9.09 140 5.82 56.5 0.43 116.0
2019-12-10 00:30 3.31 8.70 145 5.87 56.5 0.39 102.0
2019-12-10 00:00 3.15 8.70 139 5.56 56.3 0.35 96.0
2019-12-09 23:30 3.44 8.70 135 5.74 56.3 0.31 80.0
2019-12-09 23:00 3.31 8.70 130 5.63 56.5 0.21 64.0
2019-12-09 22:30 3.38 8.70 131 5.67 56.5 0.16 43.0
2019-12-09 22:00 3.44 8.33 141 5.51 56.3 0.23 33.0
2019-12-09 21:30 3.58 8.33 136 5.43 56.5 0.25 349.0
2019-12-09 21:00 3.71 8.70 137 5.66 56.7 0.25 347.0
2019-12-09 20:30 3.64 8.33 133 5.39 56.7 0.23 348.0
2019-12-09 20:00 3.77 8.00 134 5.48 56.7 0.33 329.0
2019-12-09 19:30 3.90 8.33 141 5.68 56.5 0.25 309.0
2019-12-09 19:00 4.17 8.70 144 5.80 56.5 0.27 309.0
2019-12-09 18:30 4.10 8.33 140 5.73 56.3 0.23 308.0
2019-12-09 18:00 3.87 8.33 140 5.69 56.5 0.19 288.0
2019-12-09 17:30 3.87 8.00 146 5.72 56.3 0.08 199.0
2019-12-09 17:00 3.44 7.41 139 5.47 56.1 0.02 155.0
2019-12-09 16:30 3.64 8.70 134 5.61 56.1 0.17 155.0
2019-12-09 16:00 3.58 8.00 142 5.71 56.1 0.17 142.0
2019-12-09 15:30 3.67 8.33 140 5.83 55.9 0.27 162.0
2019-12-09 15:00 3.54 8.70 143 5.83 55.9 0.37 155.0
2019-12-09 14:30 3.44 8.00 135 5.97 55.8 0.41 151.0
2019-12-09 14:00 3.54 9.09 140 5.93 55.9 0.47 145.0
2019-12-09 13:30 3.44 8.00 134 5.91 55.8 0.51 131.0
2019-12-09 13:00 3.38 8.33 131 5.90 55.8 0.49 132.0
2019-12-09 12:30 3.31 8.00 132 5.87 55.8 0.47 121.0
2019-12-09 12:00 3.54 8.00 135 6.13 55.8 0.45 110.0
2019-12-09 11:30 3.35 8.70 134 5.89 55.8 0.45 105.0
2019-12-09 11:00 3.54 8.00 135 5.86 55.8 0.35 83.0
2019-12-09 10:30 3.81 8.70 138 5.99 55.6 0.43 80.0
2019-12-09 10:00 3.94 8.70 130 5.91 55.6 0.19 59.0
2019-12-09 09:30 3.51 8.33 131 5.39 55.6 0.27 45.0
2019-12-09 09:00 3.81 8.33 127 5.46 55.6 0.35 33.0
2019-12-09 08:30 4.00 8.70 127 5.53 55.6 0.33 3.0
2019-12-09 08:00 4.23 8.33 130 5.59 55.6 0.29 355.0
2019-12-09 07:30 4.20 8.33 130 5.15 55.6 0.43 315.0
2019-12-09 07:00 4.33 8.33 121 5.22 55.6 0.45 315.0
2019-12-09 06:30 4.23 8.00 118 4.94 55.6 0.47 303.0
2019-12-09 06:00 4.36 8.00 122 4.97 55.8 0.43 303.0
2019-12-09 05:30 4.36 7.69 125 4.92 55.6 0.31 278.0
2019-12-09 05:00 4.36 7.41 126 4.85 55.6 0.31 258.0
2019-12-09 04:30 4.53 7.41 136 5.06 55.8 0.29 260.0
2019-12-09 04:00 4.36 6.90 141 4.93 55.8 0.39 238.0
2019-12-09 03:30 4.56 6.90 132 5.09 55.9 0.41 228.0
2019-12-09 03:00 3.97 7.69 135 4.78 55.9 0.45 200.0
2019-12-09 02:30 4.20 6.25 136 4.87 55.9 0.49 204.0
2019-12-09 02:00 4.27 7.41 137 4.84 55.9 0.52 187.0
2019-12-09 01:30 4.49 8.00 124 4.94 56.1 0.52 181.0
2019-12-09 01:00 4.59 8.00 126 4.94 56.1 0.47 181.0
2019-12-09 00:30 4.27 6.67 139 4.68 56.1 0.43 169.0
2019-12-09 00:00 4.33 7.41 130 4.81 56.1 0.39 177.0
2019-12-08 23:30 4.23 6.67 126 4.73 56.1 0.31 174.0
2019-12-08 23:00 4.17 7.41 122 4.59 55.9 0.25 191.0
2019-12-08 22:30 4.04 8.00 130 4.60 55.9 0.12 195.0
2019-12-08 22:00 4.07 6.90 118 4.66 56.1 0.04 343.0
2019-12-08 21:30 4.27 7.69 120 4.65 56.1 0.12 320.0
2019-12-08 21:00 4.30 7.14 113 4.62 56.1 0.19 315.0
2019-12-08 20:30 4.23 6.90 115 4.47 56.1 0.29 294.0
2019-12-08 20:00 4.33 6.90 105 4.43 56.1 0.31 312.0
2019-12-08 19:30 4.36 7.14 115 4.50 56.1 0.41 308.0
2019-12-08 19:00 4.20 6.45 98 4.48 56.1 0.43 291.0
2019-12-08 18:30 3.84 7.41 112 4.26 56.1 0.45 282.0
2019-12-08 18:00 3.87 6.67 104 4.11 56.1 0.51 274.0
2019-12-08 17:30 3.74 6.90 100 4.09 56.1 0.43 269.0
2019-12-08 17:00 3.61 5.56 79 4.02 56.1 0.45 251.0
2019-12-08 16:30 3.64 5.88 88 3.93 56.3 0.45 238.0
2019-12-08 16:00 3.87 5.71 78 3.99 56.7 0.49 236.0
2019-12-08 15:30 4.00 5.56 79 3.95 56.7 0.45 227.0
2019-12-08 15:00 3.94 4.08 65 3.86 56.8 0.52 214.0
2019-12-08 14:30 4.00 5.41 84 3.98 56.8 0.49 198.0
2019-12-08 14:00 3.74 6.25 87 3.95 56.8 0.60 195.0
2019-12-08 13:30 3.71 7.14 87 3.93 57.0 0.58 203.0
2019-12-08 13:00 4.10 5.71 78 3.99 57.0 0.51 197.0
2019-12-08 12:30 4.04 5.88 76 4.03 57.0 0.52 195.0
2019-12-08 12:00 4.27 6.06 66 4.14 57.0 0.47 198.0
2019-12-08 11:30 4.13 6.45 74 3.99 57.0 0.39 190.0
2019-12-08 11:00 4.13 5.13 69 4.00 57.0 0.43 201.0
2019-12-08 10:30 4.43 5.88 74 4.17 57.2 0.27 195.0
2019-12-08 10:00 4.10 6.67 76 4.12 57.2 0.17 175.0
2019-12-08 09:30 4.23 6.25 81 4.14 57.2 0.12 263.0
2019-12-08 09:00 4.30 6.45 77 4.23 57.2 0.17 307.0
2019-12-08 08:30 4.63 7.14 90 4.36 57.2 0.16 284.0
2019-12-08 08:00 4.40 6.06 75 4.17 57.2 0.35 297.0
2019-12-08 07:30 4.33 5.41 65 4.21 57.2 0.43 286.0
2019-12-08 07:00 4.59 7.41 81 4.27 57.2 0.47 300.0
2019-12-08 06:30 4.56 6.45 79 4.29 57.0 0.58 296.0
2019-12-08 06:00 4.63 5.71 76 4.20 57.0 0.54 304.0
2019-12-08 05:30 4.72 4.17 55 4.14 57.0 0.60 294.0
2019-12-08 05:00 4.66 5.88 73 4.08 57.0 0.54 288.0
2019-12-08 04:30 4.72 6.25 78 4.05 57.0 0.68 276.0
2019-12-08 04:00 4.43 5.41 70 3.93 57.0 0.56 260.0
2019-12-08 03:30 4.27 4.55 70 3.85 57.0 0.54 253.0
2019-12-08 03:00 4.13 5.56 75 3.79 57.0 0.56 243.0
2019-12-08 02:30 3.94 3.77 67 3.72 57.2 0.43 218.0
2019-12-08 02:00 3.81 4.26 71 3.73 57.2 0.49 217.0
2019-12-08 01:30 3.58 4.26 60 3.71 57.4 0.51 209.0
2019-12-08 01:00 3.58 6.67 94 3.73 57.4 0.47 199.0
2019-12-08 00:30 3.51 6.25 70 3.77 57.4 0.39 198.0
2019-12-08 00:00 3.51 5.88 82 3.73 57.4 0.47 201.0
2019-12-07 23:30 3.31 6.45 79 3.68 57.4 0.49 185.0
2019-12-07 23:00 3.51 6.45 84 3.82 57.6 0.35 183.0
2019-12-07 22:30 3.51 5.88 75 3.84 57.6 0.35 199.0
2019-12-07 22:00 3.41 6.25 75 3.83 57.7 0.23 186.0
2019-12-07 21:30 3.44 6.06 70 3.90 57.7 0.17 217.0
2019-12-07 21:00 3.51 6.25 77 3.80 57.7 0.19 209.0
2019-12-07 20:30 3.77 5.71 64 3.87 57.7 0.25 251.0
2019-12-07 20:00 3.81 6.06 72 3.87 57.7 0.27 251.0
2019-12-07 19:30 3.90 5.41 59 3.85 57.7 0.29 261.0
2019-12-07 19:00 3.87 5.71 61 3.83 57.7 0.31 287.0
2019-12-07 18:30 3.81 4.76 65 3.78 57.7 0.33 268.0
2019-12-07 18:00 3.77 4.76 60 3.67 57.6 0.37 272.0
2019-12-07 17:30 3.51 5.00 59 3.61 57.6 0.41 257.0
2019-12-07 17:00 3.48 4.88 62 3.52 57.6 0.43 243.0
2019-12-07 16:30 3.35 4.55 55 3.43 57.6 0.27 242.0
2019-12-07 16:00 3.28 4.44 58 3.39 57.6 0.31 220.0
2019-12-07 15:30 3.15 4.00 51 3.32 57.6 0.27 213.0
2019-12-07 15:00 2.99 3.77 50 3.19 57.6 0.37 187.0
2019-12-07 14:30 2.76 3.45 53 2.94 57.6 0.39 188.0
2019-12-07 14:00 2.36 3.28 60 2.91 57.6 0.39 185.0
2019-12-07 13:30 2.23 3.13 60 2.85 57.7 0.39 167.0
2019-12-07 13:00 2.10 4.76 156 2.87 57.7 0.43 163.0
2019-12-07 12:30 1.94 4.76 160 2.90 57.9 0.49 161.0
2019-12-07 12:00 1.80 4.88 160 2.89 57.9 0.37 150.0
2019-12-07 11:30 1.77 5.00 157 3.04 58.1 0.47 136.0
2019-12-07 11:00 1.67 5.00 160 3.24 58.1 0.41 110.0
2019-12-07 10:30 1.57 5.26 159 3.58 58.1 0.43 118.0
2019-12-07 10:00 1.48 5.41 161 3.90 58.1 0.37 125.0
2019-12-07 09:30 1.44 5.13 156 3.85 58.1 0.33 101.0
2019-12-07 09:00 1.44 4.44 167 3.67 58.1 0.37 103.0
2019-12-07 08:30 1.44 4.76 168 3.51 58.1 0.35 92.0
2019-12-07 08:00 1.64 4.55 171 3.45 58.1 0.19 64.0
2019-12-07 07:30 1.64 4.55 180 3.16 57.9 0.12 24.0
2019-12-07 07:00 1.67 4.26 179 3.29 57.9 0.17 20.0
2019-12-07 06:30 1.67 4.44 179 3.41 57.7 0.29 299.0
2019-12-07 06:00 1.51 4.08 167 3.45 57.7 0.27 297.0
2019-12-07 05:30 1.61 4.55 175 3.57 57.9 0.29 279.0
2019-12-07 05:00 1.64 4.65 171 3.61 57.7 0.29 269.0
2019-12-07 04:30 1.64 4.76 173 3.55 57.7 0.23 271.0
2019-12-07 04:00 1.71 4.44 173 3.35 57.7 0.33 236.0
2019-12-07 03:30 1.90 4.44 168 3.22 57.9 0.39 226.0
2019-12-07 03:00 1.87 4.35 167 3.07 57.9 0.29 211.0
2019-12-07 02:30 1.77 4.55 165 3.16 58.3 0.23 208.0
2019-12-07 02:00 1.57 4.26 162 3.38 58.5 0.25 205.0
2019-12-07 01:30 1.57 4.00 163 4.07 58.5 0.25 183.0
2019-12-07 01:00 1.51 4.08 152 4.10 58.5 0.21 175.0
2019-12-07 00:30 1.48 3.92 159 4.18 58.5 0.31 165.0
2019-12-07 00:00 1.44 3.92 162 4.12 58.5 0.41 152.0
2019-12-06 23:30 1.35 3.45 155 4.18 58.5 0.35 140.0
2019-12-06 23:00 1.28 8.33 107 4.34 58.6 0.25 136.0
2019-12-06 22:30 1.18 8.00 111 4.39 58.8 0.25 119.0
2019-12-06 22:00 1.21 3.51 146 4.28 58.6 0.21 124.0
2019-12-06 21:30 1.15 8.70 114 4.30 58.5 0.16 108.0
2019-12-06 21:00 1.15 7.41 102 4.25 58.6 0.16 73.0
2019-12-06 20:30 1.12 9.09 121 4.27 58.5 0.10 80.0
2019-12-06 20:00 1.15 8.33 108 4.38 58.5 0.08 21.0
2019-12-06 19:30 1.15 6.67 114 4.38 58.3 0.12 300.0
2019-12-06 19:00 1.08 7.69 109 4.38 58.3 0.16 331.0
2019-12-06 18:30 1.15 9.09 119 4.60 58.3 0.21 316.0
2019-12-06 18:00 1.12 9.09 108 4.69 58.3 0.23 313.0
2019-12-06 17:30 1.12 8.00 114 4.88 58.3 0.17 299.0
2019-12-06 17:00 1.12 7.69 101 4.76 58.1 0.25 302.0
2019-12-06 16:30 1.05 9.09 114 5.10 57.9 0.23 291.0
2019-12-06 16:00 1.02 7.14 116 5.02 57.9 0.21 292.0
2019-12-06 15:30 1.08 9.09 115 5.55 57.9 0.16 268.0
2019-12-06 15:00 1.02 7.41 99 5.32 57.9 0.16 277.0
2019-12-06 14:30 1.02 8.70 115 5.44 57.7 0.12 258.0
2019-12-06 14:00 1.02 8.70 116 5.32 57.7 0.14 226.0
2019-12-06 13:30 1.08 9.09 113 5.54 57.7 0.14 211.0
2019-12-06 13:00 0.98 8.00 112 5.18 57.6 0.17 189.0
2019-12-06 12:30 1.02 7.41 107 5.28 57.6 0.23 154.0
2019-12-06 12:00 0.98 8.70 122 5.46 57.6 0.23 155.0
2019-12-06 11:30 0.98 9.09 116 5.23 57.7 0.37 155.0
2019-12-06 11:00 0.92 5.71 147 5.05 57.6 0.37 138.0
2019-12-06 10:30 0.95 5.26 172 4.82 57.7 0.39 136.0
2019-12-06 10:00 0.92 5.26 183 4.40 57.6 0.39 133.0
2019-12-06 09:30 0.98 5.56 172 4.54 57.6 0.39 108.0
2019-12-06 09:00 0.95 5.56 180 4.18 57.2 0.37 80.0
2019-12-06 08:30 0.95 5.56 180 5.01 57.2 0.35 70.0
2019-12-06 08:00 0.92 5.26 172 5.21 57.0 0.41 35.0
2019-12-06 07:30 0.92 5.41 190 5.28 57.0 0.37 20.0
2019-12-06 07:00 0.98 5.26 181 5.51 56.1 0.35 353.0
2019-12-06 06:30 1.02 5.88 180 5.53 56.1 0.39 340.0
2019-12-06 06:00 0.98 5.88 182 5.27 56.1 0.45 330.0
2019-12-06 05:30 1.02 5.71 190 5.11 56.1 0.45 330.0
2019-12-06 05:00 1.05 5.88 185 5.06 56.1 0.56 319.0
2019-12-06 04:30 1.08 6.06 197 4.97 56.3 0.47 323.0
2019-12-06 04:00 1.15 5.88 190 4.96 56.3 0.37 320.0
2019-12-06 03:30 1.21 6.25 188 4.95 56.3 0.33 319.0
2019-12-06 03:00 1.21 5.88 195 4.78 56.5 0.25 314.0
2019-12-06 02:30 1.25 6.25 198 4.90 56.7 0.19 333.0
2019-12-06 02:00 1.28 6.25 189 4.67 56.7 0.17 289.0
2019-12-06 01:30 1.28 6.67 196 4.52 56.7 0.10 280.0
2019-12-06 01:00 1.41 6.25 192 4.50 56.7 0.12 251.0
2019-12-06 00:30 1.51 6.25 191 4.62 56.8 0.16 256.0
2019-12-06 00:00 1.48 6.45 196 4.38 56.8 0.17 231.0
2019-12-05 23:30 1.54 6.45 195 4.44 56.8 0.14 232.0
2019-12-05 23:00 1.74 6.67 199 4.43 57.0 0.14 222.0
2019-12-05 22:30 1.77 6.67 194 4.27 57.0 0.10 201.0
2019-12-05 22:00 1.90 6.67 198 4.42 57.0 0.10 177.0
2019-12-05 21:30 1.71 6.25 198 4.17 57.0 0.04 151.0
2019-12-05 21:00 1.80 6.45 207 4.28 57.2 0.04 125.0
2019-12-05 20:30 1.90 6.67 201 4.38 57.2 0.02 75.0
2019-12-05 20:00 1.97 6.90 196 4.41 57.4 0.10 269.0
2019-12-05 19:30 2.03 6.45 203 4.52 57.4 0.14 254.0
2019-12-05 19:00 2.10 6.90 202 4.45 57.2 0.29 261.0
2019-12-05 18:30 2.13 7.41 195 4.08 57.7 0.17 311.0
2019-12-05 18:00 2.43 6.90 201 4.02 57.6 0.23 309.0
2019-12-05 17:30 2.59 6.90 200 3.91 57.6 0.23 292.0
2019-12-05 17:00 2.92 7.41 197 3.88 57.4 0.31 295.0
2019-12-05 16:30 3.15 7.14 193 3.92 57.4 0.33 301.0
2019-12-05 16:00 3.48 3.64 335 3.81 57.4 0.29 269.0
2019-12-05 15:30 3.54 3.39 346 3.77 57.4 0.23 264.0
2019-12-05 15:00 3.64 4.65 266 3.82 57.4 0.14 287.0
2019-12-05 14:30 3.87 4.76 255 3.98 57.4 0.14 226.0
2019-12-05 14:00 4.23 4.44 265 4.08 57.6 0.14 230.0
2019-12-05 13:30 4.43 6.45 211 4.13 57.6 0.35 172.0
2019-12-05 13:00 4.53 6.67 209 4.08 57.6 0.17 165.0
2019-12-05 12:30 4.66 4.17 281 4.07 57.6 0.45 153.0
2019-12-05 12:00 4.59 6.25 214 4.14 57.7 0.37 150.0
2019-12-05 11:30 4.56 5.56 223 4.10 57.7 0.49 142.0
2019-12-05 11:00 4.66 6.25 216 4.24 57.9 0.54 136.0
2019-12-05 10:30 4.46 5.56 221 4.13 57.9 0.60 135.0
2019-12-05 10:00 4.76 6.06 213 4.38 57.9 0.60 138.0
2019-12-05 09:30 4.23 6.45 204 4.11 57.9 0.60 129.0
2019-12-05 09:00 4.95 5.71 212 4.45 57.9 0.58 120.0
2019-12-05 08:30 4.46 5.88 211 4.34 57.9 0.68 114.0
2019-12-05 08:00 4.82 6.45 207 4.48 57.9 0.58 114.0
2019-12-05 07:30 4.82 6.25 207 4.47 57.7 0.58 107.0
2019-12-05 07:00 5.15 6.67 204 4.55 57.7 0.52 101.0
2019-12-05 06:30 5.12 5.41 219 4.49 57.7 0.51 92.0
2019-12-05 06:00 5.28 6.67 203 4.56 57.7 0.49 85.0
2019-12-05 05:30 5.31 6.06 207 4.43 57.7 0.45 62.0
2019-12-05 05:00 5.38 6.06 211 4.48 57.7 0.27 50.0
2019-12-05 04:30 5.15 5.13 227 4.39 57.7 0.33 48.0
2019-12-05 04:00 5.12 5.26 222 4.39 57.7 0.37 34.0
2019-12-05 03:30 4.89 5.26 217 4.31 57.7 0.43 9.0
2019-12-05 03:00 4.56 5.26 219 4.17 57.7 0.21 35.0
2019-12-05 02:30 4.30 5.13 223 4.19 57.6 0.25 42.0
2019-12-05 02:00 4.53 5.88 211 4.19 57.6 0.21 87.0
2019-12-05 01:30 4.27 4.65 229 4.13 57.6 0.25 95.0
2019-12-05 01:00 4.07 4.44 230 4.05 57.6 0.27 126.0
2019-12-05 00:30 4.00 4.55 228 4.01 57.6 0.29 114.0
2019-12-05 00:00 3.74 4.26 230 3.97 57.6 0.43 125.0
2019-12-04 23:30 3.64 6.67 205 4.03 57.4 0.49 126.0
2019-12-04 23:00 3.71 6.45 200 4.00 57.4 0.49 139.0
2019-12-04 22:30 3.48 6.67 203 3.96 57.4 0.45 116.0
2019-12-04 22:00 3.61 6.45 204 4.01 57.4 0.43 125.0
2019-12-04 21:30 3.28 6.06 210 3.86 57.4 0.41 133.0
2019-12-04 21:00 3.25 6.25 208 3.96 57.4 0.33 130.0
2019-12-04 20:30 3.12 5.41 214 3.98 57.6 0.37 136.0
2019-12-04 20:00 3.15 6.45 205 4.21 57.7 0.31 129.0
2019-12-04 19:30 3.02 6.67 202 4.30 57.6 0.21 142.0
2019-12-04 19:00 3.02 6.25 204 4.41 57.6 0.14 131.0
2019-12-04 18:30 3.05 5.88 210 4.37 57.6 0.19 105.0
2019-12-04 18:00 2.95 5.41 212 4.44 57.6 0.08 170.0
2019-12-04 17:30 3.02 5.71 212 4.39 57.4 0.06 181.0
2019-12-04 17:00 3.02 5.56 213 4.29 57.4 0.06 181.0
2019-12-04 16:30 3.15 5.56 212 4.35 57.4 0.06 194.0
2019-12-04 16:00 3.12 5.41 216 4.19 57.4 0.12 279.0
2019-12-04 15:30 3.12 5.56 219 4.03 57.4 0.12 253.0
2019-12-04 15:00 3.12 5.13 220 3.96 57.6 0.08 8.0
2019-12-04 14:30 3.05 5.41 219 3.86 57.6 0.12 304.0
2019-12-04 14:00 3.18 5.56 214 3.95 57.4 0.10 295.0
2019-12-04 13:30 2.99 5.13 221 3.97 57.4 0.12 275.0
2019-12-04 13:00 3.22 5.26 211 4.06 57.4 0.14 273.0
2019-12-04 12:30 3.31 4.88 223 4.02 57.4 0.19 188.0
2019-12-04 12:00 3.18 4.65 223 3.86 57.6 0.29 159.0
2019-12-04 11:30 3.22 4.65 228 3.77 57.7 0.27 140.0
2019-12-04 11:00 3.35 4.88 223 3.75 57.7 0.39 150.0
2019-12-04 10:30 3.35 4.88 228 3.73 57.7 0.43 139.0
2019-12-04 10:00 3.28 5.00 222 3.65 57.7 0.52 133.0
2019-12-04 09:30 3.31 4.88 225 3.64 57.4 0.66 137.0
2019-12-04 09:00 3.35 4.55 229 3.69 57.0 0.72 139.0
2019-12-04 08:30 3.38 4.55 233 3.66 57.0 0.66 141.0
2019-12-04 08:00 3.18 4.44 234 3.61 57.0 0.54 135.0
2019-12-04 07:30 3.12 4.35 232 3.55 57.0 0.54 125.0
2019-12-04 07:00 3.15 4.35 235 3.53 57.2 0.33 125.0
2019-12-04 06:30 3.18 4.55 226 3.57 57.0 0.41 107.0
2019-12-04 06:00 3.12 4.26 236 3.53 57.0 0.25 93.0
2019-12-04 05:30 2.89 3.92 240 3.46 57.2 0.19 99.0
2019-12-04 05:00 2.62 3.92 234 3.40 57.2 0.12 124.0
2019-12-04 04:30 2.49 4.17 230 3.37 57.0 0.19 104.0
2019-12-04 04:00 2.49 3.70 237 3.36 57.0 0.17 110.0
2019-12-04 03:30 2.53 3.77 238 3.39 57.2 0.08 118.0
2019-12-04 03:00 2.40 3.92 238 3.40 57.2 0.10 147.0
2019-12-04 02:30 2.56 3.85 235 3.44 57.2 0.14 164.0
2019-12-04 02:00 2.46 3.70 235 3.45 57.4 0.16 184.0
2019-12-04 01:30 2.36 3.70 235 3.50 57.4 0.23 182.0
2019-12-04 01:00 2.40 3.77 238 3.53 57.7 0.06 233.0
2019-12-04 00:30 2.33 4.17 227 3.46 57.7 0.10 203.0
2019-12-04 00:00 2.46 4.00 234 3.48 57.7 0.10 170.0
2019-12-03 23:30 2.40 3.77 242 3.43 57.7 0.21 173.0
2019-12-03 22:30 2.33 3.64 247 3.44 57.4 0.25 157.0
2019-12-03 22:00 2.33 3.64 243 3.43 57.4 0.35 130.0
2019-12-03 21:30 2.30 4.65 220 3.41 57.4 0.45 134.0
2019-12-03 21:00 2.40 3.51 249 3.33 57.4 0.54 127.0
2019-12-03 20:30 2.46 3.57 251 3.29 57.4 0.54 132.0
2019-12-03 20:00 2.49 3.45 254 3.27 57.4 0.60 132.0
2019-12-03 19:30 2.49 3.57 257 3.29 57.4 0.35 151.0
2019-12-03 19:00 2.49 6.25 189 3.39 57.4 0.33 144.0
2019-12-03 18:30 2.26 5.00 225 3.51 57.4 0.29 158.0
2019-12-03 18:00 2.30 4.76 230 3.69 57.4 0.27 185.0
2019-12-03 17:30 2.43 5.41 214 3.87 57.4 0.33 190.0
2019-12-03 17:00 2.36 3.85 260 3.81 57.4 0.27 212.0
2019-12-03 16:30 2.49 5.00 227 3.80 57.4 0.29 230.0
2019-12-03 16:00 2.56 4.00 262 3.79 57.2 0.33 230.0
2019-12-03 15:30 2.76 4.00 262 3.75 57.2 0.25 227.0
2019-12-03 15:00 2.92 3.92 283 3.69 57.0 0.41 210.0
2019-12-03 14:30 2.95 4.08 269 3.62 57.0 0.41 213.0
2019-12-03 14:00 3.28 3.92 275 3.66 58.1 0.33 184.0
2019-12-03 13:30 3.31 4.08 278 3.60 58.1 0.16 195.0
2019-12-03 13:00 3.18 4.00 275 3.54 58.1 0.19 173.0
2019-12-03 12:30 3.12 3.64 288 3.53 58.3 0.12 162.0
2019-12-03 12:00 3.28 3.85 274 3.58 58.3 0.17 189.0
2019-12-03 11:30 3.22 4.26 259 3.55 58.3 0.27 168.0
2019-12-03 11:00 3.18 6.06 216 3.61 58.5 0.12 165.0
2019-12-03 10:30 3.15 4.08 266 3.57 58.5 0.27 144.0
2019-12-03 10:00 3.08 3.92 272 3.50 58.5 0.37 163.0
2019-12-03 09:30 3.22 4.00 271 3.48 58.5 0.33 168.0
2019-12-03 09:00 3.22 4.17 271 3.43 58.5 0.43 145.0
2019-12-03 08:30 3.48 4.08 277 3.52 58.6 0.62 147.0
2019-12-03 08:00 3.58 3.77 283 3.38 58.6 0.66 144.0
2019-12-03 07:30 3.64 4.26 270 3.47 58.8 0.70 142.0
2019-12-03 07:00 3.54 4.08 273 3.45 58.6 0.64 133.0
2019-12-03 06:30 3.54 4.17 277 3.50 58.6 0.62 128.0
2019-12-03 06:00 3.81 4.26 275 3.64 58.6 0.54 131.0
2019-12-03 05:30 4.00 3.77 294 3.78 58.8 0.49 118.0
2019-12-03 05:00 4.00 4.76 264 3.73 58.8 0.43 116.0
2019-12-03 04:30 4.27 4.55 268 3.86 58.8 0.33 95.0
2019-12-03 04:00 4.49 4.55 263 4.00 58.8 0.17 81.0
2019-12-03 03:30 4.40 5.13 252 4.07 58.8 0.23 51.0
2019-12-03 03:00 4.56 4.55 268 4.13 58.6 0.25 5.0
2019-12-03 02:30 4.63 5.00 258 4.25 58.6 0.16 26.0
2019-12-03 02:00 4.72 5.00 261 4.31
2019-12-03 01:00 4.95 5.13 259 4.42 58.8 0.06 117.0
2019-12-03 00:30 5.05 5.56 247 4.55 58.8 0.10 129.0
2019-12-03 00:00 5.31 5.56 252 4.56 58.8 0.12 129.0
2019-12-02 23:30 5.28 5.13 259 4.56 58.8 0.23 137.0
2019-12-02 23:00 5.41 5.26 262 4.54 58.8 0.37 161.0
2019-12-02 22:30 5.28 5.00 265 4.50 59.0 0.51 161.0
2019-12-02 22:00 5.58 4.88 267 4.54 59.0 0.49 154.0
2019-12-02 21:30 5.41 5.00 267 4.40 59.2 0.49 149.0
2019-12-02 21:00 5.35 4.76 268 4.34 59.2 0.66 135.0
2019-12-02 20:30 5.28 4.55 273 4.45 59.4 0.62 146.0
2019-12-02 20:00 4.86 9.09 188 4.42 59.4 0.68 142.0
2019-12-02 19:30 4.89 4.76 267 4.46 59.5 0.70 133.0
2019-12-02 19:00 5.09 4.88 264 4.59 59.5 0.70 135.0
2019-12-02 18:30 5.22 9.52 183 4.73 59.7 0.64 130.0
2019-12-02 18:00 5.61 9.09 190 4.92 59.7 0.56 140.0
2019-12-02 17:30 5.22 9.52 188 4.52 59.7 0.52 133.0
2019-12-02 17:00 5.61 4.76 276 4.67 59.7 0.52 119.0
2019-12-02 16:30 5.51 4.44 291 4.72 59.5 0.35 116.0
2019-12-02 16:00 5.74 8.00 194 4.82 59.5 0.33 117.0
2019-12-02 15:30 5.41 8.33 194 4.92 59.5 0.31 97.0
2019-12-02 15:00 5.68 8.00 190 5.04 59.5 0.23 68.0
2019-12-02 14:30 5.45 8.70 187 5.11 59.5 0.14 49.0
2019-12-02 14:00 5.84 8.33 196 5.28 59.4 0.23 49.0
2019-12-02 13:30 5.77 8.33 190 5.22 59.4 0.14 37.0
2019-12-02 13:00 5.87 8.00 198 5.24 59.4 0.10 102.0
2019-12-02 12:30 6.33 7.14 199 5.29 59.4 0.21 82.0
2019-12-02 12:00 6.33 7.14 199 5.30 59.4 0.25 95.0
2019-12-02 11:30 6.79 6.45 202 5.16 59.4 0.41 101.0
2019-12-02 11:00 7.28 8.33 192 5.33 59.4 0.41 117.0
2019-12-02 10:30 6.73 8.33 193 5.14 59.5 0.35 107.0
2019-12-02 10:00 6.92 8.70 187 5.30 59.5 0.54 136.0
2019-12-02 09:30 6.79 7.69 196 5.24 59.7 0.52 131.0
2019-12-02 09:00 6.53 8.00 190 5.34 59.7 0.70 129.0
2019-12-02 08:30 6.82 7.41 194 5.43 59.7 0.60 134.0
2019-12-02 08:00 6.73 6.25 209 5.26 59.7 0.74 116.0
2019-12-02 07:30 6.86 8.33 190 5.47 59.9 0.70 113.0
2019-12-02 07:00 7.22 7.41 198 5.54 59.9 0.76 114.0
2019-12-02 06:30 7.19 7.69 197 5.47 59.7 0.78 106.0
2019-12-02 06:00 7.32 6.67 198 5.49 59.7 0.68 111.0
2019-12-02 05:30 7.32 7.69 196 5.49 59.5 0.56 110.0
2019-12-02 05:00 7.58 8.33 190 5.66 59.5 0.62 98.0
2019-12-02 04:30 7.41 8.70 184 5.54 59.5 0.54 110.0
2019-12-02 04:00 7.22 8.70 183 5.46 59.5 0.54 92.0
2019-12-02 03:00 7.84 6.67 205 5.60 59.5 0.54 67.0
2019-12-02 02:30 7.74 6.25 206 5.61 59.5 0.49 61.0
2019-12-02 02:00 8.17 7.69 195 5.64 59.5 0.60 67.0
2019-12-02 01:30 7.51 8.70 191 5.47 59.5 0.54 56.0
2019-12-02 01:00 7.61 8.33 193 5.61 59.5 0.45 43.0
2019-12-02 00:00 8.04 8.33 196 5.77 59.5 0.39 8.0
2019-12-01 23:30 7.78 8.00 197 5.84 59.5 0.23 347.0
2019-12-01 23:00 8.07 8.70 192 5.95 59.5 0.17 17.0
2019-12-01 22:30 8.27 8.70 194 6.14 59.5 0.25 19.0
2019-12-01 22:00 7.64 8.33 191 5.91 59.5 0.08 130.0
2019-12-01 21:30 7.91 8.70 192 6.16 59.5 0.33 133.0
2019-12-01 21:00 7.81 8.33 195 6.01 59.5 0.29 144.0
2019-12-01 20:30 8.43 7.69 201 6.36 59.4 0.49 146.0
2019-12-01 20:00 8.46 8.00 200 6.16 59.4 0.60 144.0
2019-12-01 19:30 8.23 8.33 196 6.07 59.4 0.54 139.0
2019-12-01 19:00 7.38 7.69 199 5.89 59.5 0.60 141.0
2019-12-01 18:30 7.51 7.69 194 6.07 59.5 0.56 125.0
2019-12-01 18:00 6.99 7.41 195 5.70 59.7 0.52 119.0
2019-12-01 17:30 6.56 7.14 194 5.31 59.9 0.52 111.0
2019-12-01 17:00 6.56 7.14 196 5.29 59.9 0.41 100.0
2019-12-01 16:30 5.64 6.25 199 5.00 60.1 0.43 83.0
2019-12-01 16:00 5.61 5.71 197 4.88 60.1 0.39 65.0
2019-12-01 15:30 4.76 5.13 193 4.47 59.9 0.41 73.0
2019-12-01 15:00 3.87 4.88 192 4.23 59.9 0.33 50.0
2019-12-01 14:30 3.18 4.35 184 3.93 59.7 0.37 24.0
2019-12-01 14:00 2.85 12.50 110 3.74 59.5 0.54 358.0
2019-12-01 13:30 2.66 13.33 118 4.15 59.5 0.62 341.0
2019-12-01 13:00 2.59 13.33 124 4.62 59.4 0.60 317.0
2019-12-01 12:30 2.66 13.33 129 4.86 59.4 0.64 330.0
2019-12-01 12:00 2.49 13.33 131 4.42 59.2 0.74 314.0
2019-12-01 11:30 2.46 13.33 124 4.31 59.2 0.60 307.0
2019-12-01 11:00 2.33 12.50 121 4.07 59.2 0.62 306.0
2019-12-01 10:30 2.30 13.33 114 4.03 59.0 0.43 285.0
2019-12-01 10:00 2.17 12.50 117 4.07 59.0 0.33 269.0
2019-12-01 09:30 2.23 12.50 116 4.13 59.0 0.25 250.0
2019-12-01 09:00 2.26 13.33 110 3.92 59.2 0.25 231.0
2019-12-01 08:30 2.33 14.29 102 3.97 59.2 0.39 204.0
2019-12-01 08:00 2.23 14.29 120 3.52 59.2 0.45 195.0
2019-12-01 07:30 2.23 14.29 126 3.85 59.2 0.41 181.0
2019-12-01 07:00 1.80 14.29 125 3.79 59.2 0.47 176.0
2019-12-01 06:30 1.80 15.38 122 5.31 59.2 0.43 173.0
2019-12-01 06:00 1.64 13.33 122 5.80 59.2 0.31 153.0
2019-12-01 05:30 1.64 14.29 126 6.25 59.4 0.31 152.0
2019-12-01 05:00 1.71 14.29 129 6.18 59.4 0.21 141.0
2019-12-01 04:30 1.87 15.38 139 6.70 59.5 0.16 109.0
2019-12-01 04:00 1.97 15.38 128 6.69 59.5 0.21 72.0
2019-12-01 03:30 1.77 13.33 116 5.86 59.5 0.17 40.0
2019-12-01 03:00 1.87 14.29 124 6.09 59.4 0.21 20.0
2019-12-01 02:30 1.87 14.29 123 5.79 59.2 0.31 0.0
2019-12-01 02:00 1.84 13.33 126 5.69 59.0 0.43 341.0
2019-12-01 01:30 2.00 13.33 117 5.93 59.0 0.49 339.0
2019-12-01 01:00 1.97 14.29 135 5.55 58.8 0.47 324.0
2019-12-01 00:30 1.97 13.33 118 5.39 58.8 0.51 317.0
2019-12-01 00:00 2.13 13.33 112 5.55 58.6 0.60 312.0